<?xml version='1.0' encoding='UTF-8'?><gpx version="1.1" creator="JPX - https://github.com/jenetics/jpx" xmlns="http://www.topografix.com/GPX/1/1"><trk><trkseg><trkpt lat="45.48331613272059" lon="11.127491132189986"><ele>129.0</ele><time>2026-03-25T09:14:30.999Z</time></trkpt><trkpt lat="45.483102492881265" lon="11.126725531427493"><ele>128.99999999999997</ele><time>2026-03-25T09:15:00.999Z</time></trkpt><trkpt lat="45.483168034686116" lon="11.126689354783366"><ele>129.0</ele><time>2026-03-25T09:18:40Z</time></trkpt><trkpt lat="45.48315656293323" lon="11.12678312281999"><ele>129.0</ele><time>2026-03-25T09:18:42.999Z</time></trkpt><trkpt lat="45.48308630156237" lon="11.126834409109385"><ele>129.0</ele><time>2026-03-25T09:18:45.999Z</time></trkpt><trkpt lat="45.4830131140937" lon="11.126888018127723"><ele>129.0</ele><time>2026-03-25T09:18:47.999Z</time></trkpt><trkpt lat="45.482942797031676" lon="11.12694491626433"><ele>128.99999999999997</ele><time>2026-03-25T09:18:50.999Z</time></trkpt><trkpt lat="45.4829050408439" lon="11.127023475982348"><ele>129.0</ele><time>2026-03-25T09:18:53.999Z</time></trkpt><trkpt lat="45.48285359528141" lon="11.12708020531055"><ele>128.4</ele><time>2026-03-25T09:18:57.999Z</time></trkpt><trkpt lat="45.482758212171674" lon="11.127094222328063"><ele>127.80000000000001</ele><time>2026-03-25T09:19:00.999Z</time></trkpt><trkpt lat="45.48263096350219" lon="11.127081232423743"><ele>127.19999999999999</ele><time>2026-03-25T09:19:02.999Z</time></trkpt><trkpt lat="45.48255625679255" lon="11.127085121562057"><ele>126.6</ele><time>2026-03-25T09:19:03.999Z</time></trkpt><trkpt lat="45.48246984309874" lon="11.127085145958684"><ele>126.0</ele><time>2026-03-25T09:19:04.999Z</time></trkpt><trkpt lat="45.48236708740943" lon="11.127070054561694"><ele>126.0</ele><time>2026-03-25T09:19:05.999Z</time></trkpt><trkpt lat="45.48225672421561" lon="11.127077007574897"><ele>126.0</ele><time>2026-03-25T09:19:06.999Z</time></trkpt><trkpt lat="45.48215553861833" lon="11.12706384858957"><ele>126.0</ele><time>2026-03-25T09:19:07.999Z</time></trkpt><trkpt lat="45.482071418315925" lon="11.127040690626147"><ele>126.0</ele><time>2026-03-25T09:19:08.999Z</time></trkpt><trkpt lat="45.48199962941095" lon="11.126986135043335"><ele>126.0</ele><time>2026-03-25T09:19:09.999Z</time></trkpt><trkpt lat="45.48193998580895" lon="11.126893850790799"><ele>125.5</ele><time>2026-03-25T09:19:10.999Z</time></trkpt><trkpt lat="45.48191179561178" lon="11.126756692508366"><ele>125.0</ele><time>2026-03-25T09:19:11.999Z</time></trkpt><trkpt lat="45.48186798555909" lon="11.126618660340396"><ele>124.5</ele><time>2026-03-25T09:19:12.999Z</time></trkpt><trkpt lat="45.48180572828916" lon="11.126452301522988"><ele>124.0</ele><time>2026-03-25T09:19:13.999Z</time></trkpt><trkpt lat="45.481754039698224" lon="11.126283011191802"><ele>125.0</ele><time>2026-03-25T09:19:14.999Z</time></trkpt><trkpt lat="45.48169742027036" lon="11.126110481456202"><ele>126.0</ele><time>2026-03-25T09:19:15.999Z</time></trkpt><trkpt lat="45.48163570200222" lon="11.12592464041877"><ele>127.0</ele><time>2026-03-25T09:19:16.999Z</time></trkpt><trkpt lat="45.48157797022568" lon="11.125748827730106"><ele>128.0</ele><time>2026-03-25T09:19:17.999Z</time></trkpt><trkpt lat="45.48151902944598" lon="11.125593172476288"><ele>128.0</ele><time>2026-03-25T09:19:18.999Z</time></trkpt><trkpt lat="45.48144616036637" lon="11.125439966417321"><ele>128.0</ele><time>2026-03-25T09:19:19.999Z</time></trkpt><trkpt lat="45.48135779733653" lon="11.12528986295316"><ele>128.0</ele><time>2026-03-25T09:19:20.999Z</time></trkpt><trkpt lat="45.481266954796986" lon="11.125140455526157"><ele>128.0</ele><time>2026-03-25T09:19:21.999Z</time></trkpt><trkpt lat="45.481167914085226" lon="11.125009005218404"><ele>128.75</ele><time>2026-03-25T09:19:22.999Z</time></trkpt><trkpt lat="45.481082130958505" lon="11.124853718770726"><ele>129.5</ele><time>2026-03-25T09:19:23.999Z</time></trkpt><trkpt lat="45.481007447849876" lon="11.124681526580277"><ele>130.25</ele><time>2026-03-25T09:19:24.999Z</time></trkpt><trkpt lat="45.48091271086525" lon="11.124516413511207"><ele>131.0</ele><time>2026-03-25T09:19:25.999Z</time></trkpt><trkpt lat="45.480816397115184" lon="11.124356032639714"><ele>131.0</ele><time>2026-03-25T09:19:26.999Z</time></trkpt><trkpt lat="45.4807175965583" lon="11.124204785917252"><ele>131.0</ele><time>2026-03-25T09:19:27.999Z</time></trkpt><trkpt lat="45.4806307095612" lon="11.124072914846407"><ele>131.0</ele><time>2026-03-25T09:19:28.999Z</time></trkpt><trkpt lat="45.48055696828558" lon="11.123950183093845"><ele>131.0</ele><time>2026-03-25T09:19:29.999Z</time></trkpt><trkpt lat="45.48048420290711" lon="11.123832524733409"><ele>131.25</ele><time>2026-03-25T09:19:30.999Z</time></trkpt><trkpt lat="45.48039716884642" lon="11.123705162376096"><ele>131.5</ele><time>2026-03-25T09:19:31.999Z</time></trkpt><trkpt lat="45.48030784569576" lon="11.12357020553159"><ele>131.75</ele><time>2026-03-25T09:19:32.999Z</time></trkpt><trkpt lat="45.48022595420795" lon="11.12345572492879"><ele>132.0</ele><time>2026-03-25T09:19:33.999Z</time></trkpt><trkpt lat="45.4801758195829" lon="11.123337580123472"><ele>132.0</ele><time>2026-03-25T09:19:34.999Z</time></trkpt><trkpt lat="45.48014135174925" lon="11.12324659567312"><ele>132.0</ele><time>2026-03-25T09:19:35.999Z</time></trkpt><trkpt lat="45.4800853957089" lon="11.123190525060673"><ele>132.0</ele><time>2026-03-25T09:19:36.999Z</time></trkpt><trkpt lat="45.47990359266947" lon="11.123202116886079"><ele>132.0</ele><time>2026-03-25T09:19:38.999Z</time></trkpt><trkpt lat="45.47978599462619" lon="11.123255869332711"><ele>132.0</ele><time>2026-03-25T09:19:39.999Z</time></trkpt><trkpt lat="45.4796459075331" lon="11.123270040270247"><ele>134.0</ele><time>2026-03-25T09:19:40.999Z</time></trkpt><trkpt lat="45.47952287666648" lon="11.123323029576849"><ele>136.0</ele><time>2026-03-25T09:19:41.999Z</time></trkpt><trkpt lat="45.47939300064952" lon="11.123340438657609"><ele>138.0</ele><time>2026-03-25T09:19:42.999Z</time></trkpt><trkpt lat="45.479282951525555" lon="11.123344643609556"><ele>140.0</ele><time>2026-03-25T09:19:43.999Z</time></trkpt><trkpt lat="45.47920228921741" lon="11.123354832119462"><ele>140.0</ele><time>2026-03-25T09:19:44.999Z</time></trkpt><trkpt lat="45.47910244006589" lon="11.123284043205949"><ele>140.0</ele><time>2026-03-25T09:19:46.999Z</time></trkpt><trkpt lat="45.47907709653275" lon="11.123155982715872"><ele>140.0</ele><time>2026-03-25T09:19:47.999Z</time></trkpt><trkpt lat="45.479066293845094" lon="11.122991363727772"><ele>140.0</ele><time>2026-03-25T09:19:48.999Z</time></trkpt><trkpt lat="45.47905863942817" lon="11.122799658625908"><ele>140.0</ele><time>2026-03-25T09:19:49.999Z</time></trkpt><trkpt lat="45.479042661188416" lon="11.122619571369075"><ele>140.0</ele><time>2026-03-25T09:19:50.999Z</time></trkpt><trkpt lat="45.479022321198876" lon="11.122430875775668"><ele>140.0</ele><time>2026-03-25T09:19:51.999Z</time></trkpt><trkpt lat="45.47901305704945" lon="11.122217825341496"><ele>140.0</ele><time>2026-03-25T09:19:52.999Z</time></trkpt><trkpt lat="45.47901109452875" lon="11.121984133284133"><ele>140.0</ele><time>2026-03-25T09:19:53.999Z</time></trkpt><trkpt lat="45.47901786333061" lon="11.121778152723802"><ele>140.0</ele><time>2026-03-25T09:19:54.999Z</time></trkpt><trkpt lat="45.47901592896018" lon="11.121568647188338"><ele>140.0</ele><time>2026-03-25T09:19:55.999Z</time></trkpt><trkpt lat="45.479004336070865" lon="11.121357402751274"><ele>140.0</ele><time>2026-03-25T09:19:56.999Z</time></trkpt><trkpt lat="45.47900029443268" lon="11.12114594902463"><ele>141.33333333333331</ele><time>2026-03-25T09:19:57.999Z</time></trkpt><trkpt lat="45.47900304692767" lon="11.120923061405776"><ele>142.66666666666666</ele><time>2026-03-25T09:19:58.999Z</time></trkpt><trkpt lat="45.47900381986943" lon="11.12069649927541"><ele>144.0</ele><time>2026-03-25T09:19:59.999Z</time></trkpt><trkpt lat="45.478992552028416" lon="11.120470888494664"><ele>146.66666666666666</ele><time>2026-03-25T09:20:00.999Z</time></trkpt><trkpt lat="45.47896108182627" lon="11.120246924699947"><ele>149.33333333333331</ele><time>2026-03-25T09:20:01.999Z</time></trkpt><trkpt lat="45.47891227613471" lon="11.120018946304347"><ele>152.0</ele><time>2026-03-25T09:20:02.999Z</time></trkpt><trkpt lat="45.47885523413799" lon="11.11980290066101"><ele>153.66666666666666</ele><time>2026-03-25T09:20:03.999Z</time></trkpt><trkpt lat="45.47879105781701" lon="11.11960245604549"><ele>155.33333333333334</ele><time>2026-03-25T09:20:04.999Z</time></trkpt><trkpt lat="45.478725108319466" lon="11.119403154135611"><ele>157.0</ele><time>2026-03-25T09:20:05.999Z</time></trkpt><trkpt lat="45.47867021531308" lon="11.119207536624074"><ele>160.25</ele><time>2026-03-25T09:20:06.999Z</time></trkpt><trkpt lat="45.478648159932504" lon="11.119026603260327"><ele>163.5</ele><time>2026-03-25T09:20:07.999Z</time></trkpt><trkpt lat="45.47862241319824" lon="11.118860197161725"><ele>166.75</ele><time>2026-03-25T09:20:08.999Z</time></trkpt><trkpt lat="45.47861634508123" lon="11.118684826622166"><ele>170.0</ele><time>2026-03-25T09:20:09.999Z</time></trkpt><trkpt lat="45.478645387125944" lon="11.118507784343512"><ele>170.0</ele><time>2026-03-25T09:20:10.999Z</time></trkpt><trkpt lat="45.4786926136646" lon="11.118324573035478"><ele>170.0</ele><time>2026-03-25T09:20:11.999Z</time></trkpt><trkpt lat="45.478794951591496" lon="11.11817348376061"><ele>170.0</ele><time>2026-03-25T09:20:12.999Z</time></trkpt><trkpt lat="45.47890815595801" lon="11.118048483816453"><ele>170.0</ele><time>2026-03-25T09:20:13.999Z</time></trkpt><trkpt lat="45.4790362348277" lon="11.11793061983087"><ele>168.0</ele><time>2026-03-25T09:20:14.999Z</time></trkpt><trkpt lat="45.47915863042379" lon="11.117799501125601"><ele>166.0</ele><time>2026-03-25T09:20:15.999Z</time></trkpt><trkpt lat="45.47929691314705" lon="11.11771195730302"><ele>164.0</ele><time>2026-03-25T09:20:16.999Z</time></trkpt><trkpt lat="45.47942858010426" lon="11.117686951149995"><ele>162.0</ele><time>2026-03-25T09:20:17.999Z</time></trkpt><trkpt lat="45.479545404757175" lon="11.117676879222918"><ele>164.39999999999998</ele><time>2026-03-25T09:20:18.999Z</time></trkpt><trkpt lat="45.479628576191466" lon="11.1176354029787"><ele>166.79999999999998</ele><time>2026-03-25T09:20:19.999Z</time></trkpt><trkpt lat="45.47967214883872" lon="11.117526398793245"><ele>169.2</ele><time>2026-03-25T09:20:20.999Z</time></trkpt><trkpt lat="45.47973050402166" lon="11.117394499613301"><ele>171.6</ele><time>2026-03-25T09:20:21.999Z</time></trkpt><trkpt lat="45.47981485869798" lon="11.117261377581787"><ele>174.0</ele><time>2026-03-25T09:20:22.999Z</time></trkpt><trkpt lat="45.47990132067539" lon="11.117097763121695"><ele>174.0</ele><time>2026-03-25T09:20:23.999Z</time></trkpt><trkpt lat="45.480006730012555" lon="11.116932539922207"><ele>174.0</ele><time>2026-03-25T09:20:24.999Z</time></trkpt><trkpt lat="45.48011431190397" lon="11.116759664336366"><ele>174.0</ele><time>2026-03-25T09:20:25.999Z</time></trkpt><trkpt lat="45.48024038723706" lon="11.116612937528691"><ele>178.0</ele><time>2026-03-25T09:20:26.999Z</time></trkpt><trkpt lat="45.48035151784738" lon="11.116438148601"><ele>182.0</ele><time>2026-03-25T09:20:27.999Z</time></trkpt><trkpt lat="45.48047507951769" lon="11.116282563589282"><ele>186.0</ele><time>2026-03-25T09:20:28.999Z</time></trkpt><trkpt lat="45.48058804661041" lon="11.116128314304408"><ele>186.8</ele><time>2026-03-25T09:20:29.999Z</time></trkpt><trkpt lat="45.48068322216058" lon="11.115996055888594"><ele>187.60000000000002</ele><time>2026-03-25T09:20:30.999Z</time></trkpt><trkpt lat="45.48076691814069" lon="11.115895808040692"><ele>188.4</ele><time>2026-03-25T09:20:31.999Z</time></trkpt><trkpt lat="45.48084362987946" lon="11.11585879527074"><ele>189.2</ele><time>2026-03-25T09:20:32.999Z</time></trkpt><trkpt lat="45.48094690996733" lon="11.115921573372082"><ele>190.0</ele><time>2026-03-25T09:20:33.999Z</time></trkpt><trkpt lat="45.48105421061809" lon="11.115877871964821"><ele>190.0</ele><time>2026-03-25T09:20:34.999Z</time></trkpt><trkpt lat="45.48113261859065" lon="11.115841179349166"><ele>190.0</ele><time>2026-03-25T09:20:35.999Z</time></trkpt><trkpt lat="45.481205000482404" lon="11.11578398836106"><ele>190.0</ele><time>2026-03-25T09:20:36.999Z</time></trkpt><trkpt lat="45.481273537443805" lon="11.115770685496964"><ele>190.0</ele><time>2026-03-25T09:20:37.999Z</time></trkpt><trkpt lat="45.48140459210885" lon="11.115691844562793"><ele>190.0</ele><time>2026-03-25T09:20:38.999Z</time></trkpt><trkpt lat="45.48149141498623" lon="11.115625430919062"><ele>193.8</ele><time>2026-03-25T09:20:39.999Z</time></trkpt><trkpt lat="45.48157776772388" lon="11.115570109226157"><ele>197.6</ele><time>2026-03-25T09:20:40.999Z</time></trkpt><trkpt lat="45.48164407979938" lon="11.115464021980696"><ele>201.39999999999998</ele><time>2026-03-25T09:20:41.999Z</time></trkpt><trkpt lat="45.481725397780956" lon="11.115345701927458"><ele>205.2</ele><time>2026-03-25T09:20:42.999Z</time></trkpt><trkpt lat="45.48179560708978" lon="11.11524903499848"><ele>209.0</ele><time>2026-03-25T09:20:43.999Z</time></trkpt><trkpt lat="45.48185658958937" lon="11.11510507199255"><ele>209.00000000000003</ele><time>2026-03-25T09:20:45.999Z</time></trkpt><trkpt lat="45.481897765887034" lon="11.115027016962589"><ele>209.0</ele><time>2026-03-25T09:20:47.999Z</time></trkpt><trkpt lat="45.481960484614504" lon="11.114933387292716"><ele>209.0</ele><time>2026-03-25T09:20:50.999Z</time></trkpt><trkpt lat="45.482018181603294" lon="11.114867799118993"><ele>209.0</ele><time>2026-03-25T09:20:55.999Z</time></trkpt><trkpt lat="45.4819527560345" lon="11.114950124463224"><ele>209.00000000000003</ele><time>2026-03-25T09:21:12.999Z</time></trkpt><trkpt lat="45.4819029372802" lon="11.115007754295082"><ele>209.0</ele><time>2026-03-25T09:21:18.999Z</time></trkpt><trkpt lat="45.481774939430906" lon="11.114915344226784"><ele>209.00000000000003</ele><time>2026-03-25T09:21:24.999Z</time></trkpt><trkpt lat="45.481703828347115" lon="11.114919424579854"><ele>209.0</ele><time>2026-03-25T09:21:29.999Z</time></trkpt><trkpt lat="45.48161876718658" lon="11.114907684073168"><ele>209.0</ele><time>2026-03-25T09:21:33.997Z</time></trkpt><trkpt lat="45.48162422502853" lon="11.114806882137355"><ele>209.0</ele><time>2026-03-25T09:21:36.997Z</time></trkpt><trkpt lat="45.48161942433042" lon="11.11469010650191"><ele>209.00000000000003</ele><time>2026-03-25T09:21:40.998Z</time></trkpt><trkpt lat="45.48153261356844" lon="11.114684537895494"><ele>209.0</ele><time>2026-03-25T09:22:43.999Z</time></trkpt><trkpt lat="45.481467686009125" lon="11.114681998187491"><ele>212.42857142857142</ele><time>2026-03-25T09:22:52.999Z</time></trkpt><trkpt lat="45.48140994902078" lon="11.114639699987428"><ele>215.85714285714283</ele><time>2026-03-25T09:24:11.999Z</time></trkpt><trkpt lat="45.48140669644928" lon="11.1145366961291"><ele>219.28571428571428</ele><time>2026-03-25T09:24:33.999Z</time></trkpt><trkpt lat="45.48137658552528" lon="11.114447413310764"><ele>222.71428571428572</ele><time>2026-03-25T09:25:23Z</time></trkpt><trkpt lat="45.481366252334354" lon="11.114334265419242"><ele>226.14285714285714</ele><time>2026-03-25T09:25:54.999Z</time></trkpt><trkpt lat="45.48131649161316" lon="11.11426526444688"><ele>229.57142857142858</ele><time>2026-03-25T09:28:19Z</time></trkpt><trkpt lat="45.481265408662416" lon="11.114190275871199"><ele>233.0</ele><time>2026-03-25T09:28:22Z</time></trkpt><trkpt lat="45.481267260117974" lon="11.114073991867068"><ele>235.50000000000003</ele><time>2026-03-25T09:28:27Z</time></trkpt><trkpt lat="45.48122804218799" lon="11.113976546696858"><ele>238.0</ele><time>2026-03-25T09:28:29Z</time></trkpt><trkpt lat="45.48119945866409" lon="11.11388507757486"><ele>240.5</ele><time>2026-03-25T09:28:41Z</time></trkpt><trkpt lat="45.481255276464154" lon="11.113827174791997"><ele>243.0</ele><time>2026-03-25T09:28:43Z</time></trkpt><trkpt lat="45.48138241962028" lon="11.113827557000997"><ele>245.50000000000003</ele><time>2026-03-25T09:28:45Z</time></trkpt><trkpt lat="45.48144881365457" lon="11.113841046521182"><ele>248.0</ele><time>2026-03-25T09:28:46Z</time></trkpt><trkpt lat="45.48152459289061" lon="11.113869687890622"><ele>248.00000000000003</ele><time>2026-03-25T09:28:47Z</time></trkpt><trkpt lat="45.48160205312284" lon="11.113898707807724"><ele>248.0</ele><time>2026-03-25T09:28:48Z</time></trkpt><trkpt lat="45.48167683087448" lon="11.113925791372068"><ele>248.0</ele><time>2026-03-25T09:28:49Z</time></trkpt><trkpt lat="45.481754434867604" lon="11.113924253248301"><ele>248.0</ele><time>2026-03-25T09:28:50Z</time></trkpt><trkpt lat="45.4818380025924" lon="11.113917426366935"><ele>248.00000000000003</ele><time>2026-03-25T09:28:51Z</time></trkpt><trkpt lat="45.48190648589102" lon="11.113884131359049"><ele>248.0</ele><time>2026-03-25T09:28:52Z</time></trkpt><trkpt lat="45.48198259179725" lon="11.113831862563602"><ele>248.0</ele><time>2026-03-25T09:28:53Z</time></trkpt><trkpt lat="45.482061884738314" lon="11.113748826002931"><ele>248.0</ele><time>2026-03-25T09:28:54Z</time></trkpt><trkpt lat="45.48214202349536" lon="11.113651392108853"><ele>248.0</ele><time>2026-03-25T09:28:55Z</time></trkpt><trkpt lat="45.48220600324654" lon="11.113566287008682"><ele>248.0</ele><time>2026-03-25T09:28:56Z</time></trkpt><trkpt lat="45.4822263879623" lon="11.113475496870779"><ele>248.0</ele><time>2026-03-25T09:28:57Z</time></trkpt><trkpt lat="45.48230667782423" lon="11.113321319729764"><ele>249.4</ele><time>2026-03-25T09:28:59Z</time></trkpt><trkpt lat="45.4823385005938" lon="11.113220503171465"><ele>250.8</ele><time>2026-03-25T09:29:00Z</time></trkpt><trkpt lat="45.4824099273473" lon="11.113114029825576"><ele>252.2</ele><time>2026-03-25T09:29:01Z</time></trkpt><trkpt lat="45.48253783666512" lon="11.113095745542635"><ele>253.6</ele><time>2026-03-25T09:29:02.001Z</time></trkpt><trkpt lat="45.482622143430085" lon="11.113081292837151"><ele>255.0</ele><time>2026-03-25T09:29:03.001Z</time></trkpt><trkpt lat="45.48269138766398" lon="11.113069422309122"><ele>255.0</ele><time>2026-03-25T09:29:04.001Z</time></trkpt><trkpt lat="45.4827783152802" lon="11.113038025654582"><ele>255.0</ele><time>2026-03-25T09:29:06.001Z</time></trkpt><trkpt lat="45.48282689402131" lon="11.112976121613704"><ele>255.0</ele><time>2026-03-25T09:29:08.001Z</time></trkpt><trkpt lat="45.48312399006545" lon="11.113415167689535"><ele>251.0</ele><time>2026-03-25T09:29:13.001Z</time></trkpt><trkpt lat="45.483121145410145" lon="11.113506348083613"><ele>247.0</ele><time>2026-03-25T09:29:14.001Z</time></trkpt><trkpt lat="45.4830562334654" lon="11.113633547209568"><ele>243.0</ele><time>2026-03-25T09:29:16.001Z</time></trkpt><trkpt lat="45.48297115344999" lon="11.113690769865594"><ele>239.0</ele><time>2026-03-25T09:29:17.001Z</time></trkpt><trkpt lat="45.48286758040576" lon="11.113760419322592"><ele>235.0</ele><time>2026-03-25T09:29:18.001Z</time></trkpt><trkpt lat="45.48278450579223" lon="11.113835243476522"><ele>234.99999999999997</ele><time>2026-03-25T09:29:19.001Z</time></trkpt><trkpt lat="45.48272357065507" lon="11.113881476595719"><ele>235.0</ele><time>2026-03-25T09:29:20.001Z</time></trkpt><trkpt lat="45.48266572062985" lon="11.113944489201343"><ele>235.0</ele><time>2026-03-25T09:29:21.001Z</time></trkpt><trkpt lat="45.482605766829266" lon="11.114016777558186"><ele>235.0</ele><time>2026-03-25T09:29:22.001Z</time></trkpt><trkpt lat="45.48252869267876" lon="11.11412130388663"><ele>234.99999999999997</ele><time>2026-03-25T09:29:23.001Z</time></trkpt><trkpt lat="45.48244986084552" lon="11.11423844512676"><ele>235.0</ele><time>2026-03-25T09:29:24.001Z</time></trkpt><trkpt lat="45.482372630156355" lon="11.114319748670399"><ele>234.6</ele><time>2026-03-25T09:29:25.001Z</time></trkpt><trkpt lat="45.48232230246403" lon="11.114411744134495"><ele>234.2</ele><time>2026-03-25T09:29:26.001Z</time></trkpt><trkpt lat="45.48226752562155" lon="11.114500124787176"><ele>233.8</ele><time>2026-03-25T09:29:27.001Z</time></trkpt><trkpt lat="45.482201125595545" lon="11.114584681833815"><ele>233.4</ele><time>2026-03-25T09:29:28.001Z</time></trkpt><trkpt lat="45.48211877275399" lon="11.11468651402097"><ele>233.0</ele><time>2026-03-25T09:29:29.001Z</time></trkpt><trkpt lat="45.4820556233556" lon="11.114775564300242"><ele>233.0</ele><time>2026-03-25T09:29:30.001Z</time></trkpt><trkpt lat="45.4820067894444" lon="11.11484272219385"><ele>233.0</ele><time>2026-03-25T09:29:31.001Z</time></trkpt><trkpt lat="45.48193699527315" lon="11.11493329856355"><ele>233.0</ele><time>2026-03-25T09:29:33.001Z</time></trkpt><trkpt lat="45.48188374936931" lon="11.11501809648561"><ele>233.0</ele><time>2026-03-25T09:29:38.001Z</time></trkpt><trkpt lat="45.48173823464121" lon="11.1149358570302"><ele>233.0</ele><time>2026-03-25T09:29:46.001Z</time></trkpt><trkpt lat="45.481650792293074" lon="11.114924715727684"><ele>233.0</ele><time>2026-03-25T09:29:53.001Z</time></trkpt><trkpt lat="45.481596518224066" lon="11.114876744434191"><ele>233.0</ele><time>2026-03-25T09:30:01Z</time></trkpt><trkpt lat="45.48157661724319" lon="11.114784226048123"><ele>233.0</ele><time>2026-03-25T09:30:13Z</time></trkpt><trkpt lat="45.48159958496036" lon="11.114687470098405"><ele>233.0</ele><time>2026-03-25T09:30:18Z</time></trkpt><trkpt lat="45.48153352064581" lon="11.114687597025442"><ele>233.0</ele><time>2026-03-25T09:30:30.001Z</time></trkpt><trkpt lat="45.48146237423208" lon="11.11469887693637"><ele>233.0</ele><time>2026-03-25T09:30:33.001Z</time></trkpt><trkpt lat="45.48137884884942" lon="11.11460232944621"><ele>233.0</ele><time>2026-03-25T09:32:08.001Z</time></trkpt><trkpt lat="45.48141290109502" lon="11.114514463096619"><ele>233.0</ele><time>2026-03-25T09:34:28Z</time></trkpt><trkpt lat="45.481378781990166" lon="11.114384956305148"><ele>233.0</ele><time>2026-03-25T09:34:33Z</time></trkpt><trkpt lat="45.48136394366781" lon="11.114290119129423"><ele>233.0</ele><time>2026-03-25T09:34:36Z</time></trkpt><trkpt lat="45.48130607920312" lon="11.114240497797319"><ele>233.0</ele><time>2026-03-25T09:34:39Z</time></trkpt><trkpt lat="45.48127821781864" lon="11.114153702158397"><ele>233.0</ele><time>2026-03-25T09:34:44Z</time></trkpt><trkpt lat="45.48128624855629" lon="11.114060572861892"><ele>233.0</ele><time>2026-03-25T09:34:47Z</time></trkpt><trkpt lat="45.48125297934408" lon="11.113980403489851"><ele>233.0</ele><time>2026-03-25T09:34:51Z</time></trkpt><trkpt lat="45.48119174942296" lon="11.113906613313405"><ele>235.50000000000003</ele><time>2026-03-25T09:38:12.001Z</time></trkpt><trkpt lat="45.48122600895812" lon="11.113820539547673"><ele>238.0</ele><time>2026-03-25T09:38:15.001Z</time></trkpt><trkpt lat="45.48131269760881" lon="11.11382283560734"><ele>240.5</ele><time>2026-03-25T09:38:17.001Z</time></trkpt><trkpt lat="45.4814108788754" lon="11.113829152058303"><ele>243.0</ele><time>2026-03-25T09:38:19.999Z</time></trkpt><trkpt lat="45.48148951290495" lon="11.113854917181442"><ele>245.50000000000003</ele><time>2026-03-25T09:38:20.999Z</time></trkpt><trkpt lat="45.48157000509014" lon="11.113879444361551"><ele>248.0</ele><time>2026-03-25T09:38:21.999Z</time></trkpt><trkpt lat="45.48163985238197" lon="11.113925458543857"><ele>248.00000000000003</ele><time>2026-03-25T09:38:22.999Z</time></trkpt><trkpt lat="45.48171207980259" lon="11.11394322868437"><ele>248.0</ele><time>2026-03-25T09:38:23.999Z</time></trkpt><trkpt lat="45.48179361407396" lon="11.113938793764325"><ele>248.0</ele><time>2026-03-25T09:38:24.999Z</time></trkpt><trkpt lat="45.48188077495315" lon="11.11389930732427"><ele>248.0</ele><time>2026-03-25T09:38:25.999Z</time></trkpt><trkpt lat="45.481966073159306" lon="11.1138388914453"><ele>248.00000000000003</ele><time>2026-03-25T09:38:26.999Z</time></trkpt><trkpt lat="45.482045221104585" lon="11.113755506191657"><ele>248.0</ele><time>2026-03-25T09:38:27.999Z</time></trkpt><trkpt lat="45.48212622271084" lon="11.113651685751393"><ele>249.16666666666669</ele><time>2026-03-25T09:38:28.999Z</time></trkpt><trkpt lat="45.482190842259065" lon="11.113569017403625"><ele>250.33333333333334</ele><time>2026-03-25T09:38:29.999Z</time></trkpt><trkpt lat="45.482221353815206" lon="11.113485161363634"><ele>251.5</ele><time>2026-03-25T09:38:30.999Z</time></trkpt><trkpt lat="45.482261844347065" lon="11.113407411544383"><ele>252.66666666666669</ele><time>2026-03-25T09:38:31.999Z</time></trkpt><trkpt lat="45.4823076544042" lon="11.113319448699647"><ele>253.83333333333334</ele><time>2026-03-25T09:38:32.999Z</time></trkpt><trkpt lat="45.48233891661927" lon="11.113219820939175"><ele>255.0</ele><time>2026-03-25T09:38:33.999Z</time></trkpt><trkpt lat="45.482405509302865" lon="11.113118213332402"><ele>255.0</ele><time>2026-03-25T09:38:34.999Z</time></trkpt><trkpt lat="45.48250769981124" lon="11.113080969416776"><ele>255.0</ele><time>2026-03-25T09:38:35.999Z</time></trkpt><trkpt lat="45.482588229741545" lon="11.11308710666372"><ele>255.0</ele><time>2026-03-25T09:38:36.999Z</time></trkpt><trkpt lat="45.48265822163004" lon="11.113075108212653"><ele>255.0</ele><time>2026-03-25T09:38:37.999Z</time></trkpt><trkpt lat="45.482761760714794" lon="11.113057360006538"><ele>255.0</ele><time>2026-03-25T09:38:39.999Z</time></trkpt><trkpt lat="45.48280907141944" lon="11.112975976469476"><ele>255.0</ele><time>2026-03-25T09:38:43Z</time></trkpt><trkpt lat="45.48287544946244" lon="11.112911015716348"><ele>248.0</ele><time>2026-03-25T09:38:45Z</time></trkpt><trkpt lat="45.482959644720424" lon="11.112883814008995"><ele>241.0</ele><time>2026-03-25T09:38:46Z</time></trkpt><trkpt lat="45.48311951247424" lon="11.113370765009035"><ele>239.8</ele><time>2026-03-25T09:38:47Z</time></trkpt><trkpt lat="45.483123809705475" lon="11.113476010968297"><ele>238.60000000000002</ele><time>2026-03-25T09:38:48Z</time></trkpt><trkpt lat="45.48309503583168" lon="11.113566962536352"><ele>237.4</ele><time>2026-03-25T09:38:49Z</time></trkpt><trkpt lat="45.4830036190111" lon="11.113664773632722"><ele>236.2</ele><time>2026-03-25T09:38:51Z</time></trkpt><trkpt lat="45.48291731526336" lon="11.113718037531891"><ele>235.0</ele><time>2026-03-25T09:38:52Z</time></trkpt><trkpt lat="45.48283254524123" lon="11.113806864028314"><ele>234.99999999999997</ele><time>2026-03-25T09:38:53Z</time></trkpt><trkpt lat="45.48275268104532" lon="11.113873441042108"><ele>235.0</ele><time>2026-03-25T09:38:54Z</time></trkpt><trkpt lat="45.482686788797174" lon="11.113929392332777"><ele>235.0</ele><time>2026-03-25T09:38:55Z</time></trkpt><trkpt lat="45.48261579075719" lon="11.113981819947572"><ele>235.0</ele><time>2026-03-25T09:38:56Z</time></trkpt><trkpt lat="45.48256200932287" lon="11.114073275651842"><ele>234.99999999999997</ele><time>2026-03-25T09:38:57Z</time></trkpt><trkpt lat="45.48249896485019" lon="11.114154887521579"><ele>235.0</ele><time>2026-03-25T09:38:58Z</time></trkpt><trkpt lat="45.482416623348705" lon="11.114255186025193"><ele>234.66666666666666</ele><time>2026-03-25T09:38:59Z</time></trkpt><trkpt lat="45.48235488224322" lon="11.114379114250768"><ele>234.33333333333331</ele><time>2026-03-25T09:39:00Z</time></trkpt><trkpt lat="45.482288650739335" lon="11.114473758586474"><ele>234.0</ele><time>2026-03-25T09:39:01Z</time></trkpt><trkpt lat="45.48223564743626" lon="11.114538138369769"><ele>233.66666666666669</ele><time>2026-03-25T09:39:02Z</time></trkpt><trkpt lat="45.48218574428156" lon="11.114593584697626"><ele>233.33333333333334</ele><time>2026-03-25T09:39:03Z</time></trkpt><trkpt lat="45.48212975300339" lon="11.114675090228006"><ele>233.0</ele><time>2026-03-25T09:39:04Z</time></trkpt><trkpt lat="45.48207567414011" lon="11.114745933028134"><ele>233.0</ele><time>2026-03-25T09:39:05Z</time></trkpt><trkpt lat="45.48199191189429" lon="11.11486714390534"><ele>233.0</ele><time>2026-03-25T09:39:07Z</time></trkpt><trkpt lat="45.481924139735256" lon="11.114945209409663"><ele>233.0</ele><time>2026-03-25T09:39:09Z</time></trkpt><trkpt lat="45.48187703205876" lon="11.115013083881376"><ele>233.0</ele><time>2026-03-25T09:39:11Z</time></trkpt><trkpt lat="45.48180569829123" lon="11.11514339165706"><ele>233.0</ele><time>2026-03-25T09:43:14.001Z</time></trkpt><trkpt lat="45.48175694909168" lon="11.115232444404484"><ele>229.00000000000003</ele><time>2026-03-25T09:43:15.001Z</time></trkpt><trkpt lat="45.48169954585018" lon="11.115333479930287"><ele>225.0</ele><time>2026-03-25T09:43:16.001Z</time></trkpt><trkpt lat="45.4816521737445" lon="11.115409405107934"><ele>221.0</ele><time>2026-03-25T09:43:17.001Z</time></trkpt><trkpt lat="45.48158767015214" lon="11.115493393769396"><ele>217.0</ele><time>2026-03-25T09:43:18.001Z</time></trkpt><trkpt lat="45.48152946305588" lon="11.115550169161622"><ele>213.00000000000003</ele><time>2026-03-25T09:43:19.001Z</time></trkpt><trkpt lat="45.481454567815625" lon="11.115606550920104"><ele>209.0</ele><time>2026-03-25T09:43:20.001Z</time></trkpt><trkpt lat="45.48136873055482" lon="11.115664341410804"><ele>208.2</ele><time>2026-03-25T09:43:21.001Z</time></trkpt><trkpt lat="45.48126978569105" lon="11.11574022759417"><ele>207.39999999999998</ele><time>2026-03-25T09:43:22.001Z</time></trkpt><trkpt lat="45.48116167564315" lon="11.115797055464183"><ele>206.6</ele><time>2026-03-25T09:43:23.001Z</time></trkpt><trkpt lat="45.48106368135635" lon="11.115835979692726"><ele>205.8</ele><time>2026-03-25T09:43:24.001Z</time></trkpt><trkpt lat="45.480965977277116" lon="11.115885412100832"><ele>205.0</ele><time>2026-03-25T09:43:25.001Z</time></trkpt><trkpt lat="45.4808834470585" lon="11.115896253787263"><ele>201.25</ele><time>2026-03-25T09:43:26.001Z</time></trkpt><trkpt lat="45.48079217508903" lon="11.115933223820953"><ele>197.5</ele><time>2026-03-25T09:43:27.001Z</time></trkpt><trkpt lat="45.48066421499786" lon="11.115986003077817"><ele>193.75</ele><time>2026-03-25T09:43:28.001Z</time></trkpt><trkpt lat="45.48056067538549" lon="11.116126661742127"><ele>190.0</ele><time>2026-03-25T09:43:29.001Z</time></trkpt><trkpt lat="45.480453503159545" lon="11.11627069718373"><ele>188.66666666666669</ele><time>2026-03-25T09:43:30.001Z</time></trkpt><trkpt lat="45.4803402336004" lon="11.116420322535664"><ele>187.33333333333334</ele><time>2026-03-25T09:43:31.001Z</time></trkpt><trkpt lat="45.480226290343914" lon="11.11656729830076"><ele>186.0</ele><time>2026-03-25T09:43:32.001Z</time></trkpt><trkpt lat="45.48011112775457" lon="11.116720683363381"><ele>182.0</ele><time>2026-03-25T09:43:33.001Z</time></trkpt><trkpt lat="45.480001432313635" lon="11.1168879704142"><ele>178.0</ele><time>2026-03-25T09:43:34.001Z</time></trkpt><trkpt lat="45.47989869894547" lon="11.117054874475762"><ele>174.0</ele><time>2026-03-25T09:43:35.001Z</time></trkpt><trkpt lat="45.479794828407556" lon="11.117222723154258"><ele>174.0</ele><time>2026-03-25T09:43:36.001Z</time></trkpt><trkpt lat="45.47969731332733" lon="11.117362941223007"><ele>174.0</ele><time>2026-03-25T09:43:37.001Z</time></trkpt><trkpt lat="45.47964064778502" lon="11.117506773357121"><ele>174.0</ele><time>2026-03-25T09:43:38.001Z</time></trkpt><trkpt lat="45.47957854871541" lon="11.117620682949012"><ele>174.0</ele><time>2026-03-25T09:43:39.001Z</time></trkpt><trkpt lat="45.47951545133246" lon="11.117697174757176"><ele>174.0</ele><time>2026-03-25T09:43:40.001Z</time></trkpt><trkpt lat="45.479424724703016" lon="11.117639946931769"><ele>171.0</ele><time>2026-03-25T09:43:41.001Z</time></trkpt><trkpt lat="45.47931478588274" lon="11.117664413969607"><ele>168.0</ele><time>2026-03-25T09:43:42.001Z</time></trkpt><trkpt lat="45.47920466401648" lon="11.117753497186614"><ele>165.0</ele><time>2026-03-25T09:43:43.001Z</time></trkpt><trkpt lat="45.4790701578076" lon="11.11784558820972"><ele>162.0</ele><time>2026-03-25T09:43:44.001Z</time></trkpt><trkpt lat="45.478933329682995" lon="11.117967911596386"><ele>162.0</ele><time>2026-03-25T09:43:45.001Z</time></trkpt><trkpt lat="45.478817577249615" lon="11.118079068504214"><ele>162.0</ele><time>2026-03-25T09:43:46.001Z</time></trkpt><trkpt lat="45.47872375105143" lon="11.118213491888675"><ele>162.0</ele><time>2026-03-25T09:43:47.001Z</time></trkpt><trkpt lat="45.47865501036218" lon="11.118364412454246"><ele>162.0</ele><time>2026-03-25T09:43:48.001Z</time></trkpt><trkpt lat="45.47860865384105" lon="11.118521605760094"><ele>164.0</ele><time>2026-03-25T09:43:49.002Z</time></trkpt><trkpt lat="45.47858127816145" lon="11.118694145073482"><ele>166.0</ele><time>2026-03-25T09:43:50.002Z</time></trkpt><trkpt lat="45.47857199732385" lon="11.118867358262566"><ele>168.0</ele><time>2026-03-25T09:43:51.002Z</time></trkpt><trkpt lat="45.4786286559609" lon="11.119066883657956"><ele>170.0</ele><time>2026-03-25T09:43:52.002Z</time></trkpt><trkpt lat="45.47868481607511" lon="11.119284302619247"><ele>171.0</ele><time>2026-03-25T09:43:53.002Z</time></trkpt><trkpt lat="45.47873389551892" lon="11.119515245548175"><ele>172.0</ele><time>2026-03-25T09:43:54.002Z</time></trkpt><trkpt lat="45.47879915187594" lon="11.119719682015422"><ele>173.0</ele><time>2026-03-25T09:43:55.002Z</time></trkpt><trkpt lat="45.47885285099291" lon="11.11990075046827"><ele>167.75</ele><time>2026-03-25T09:43:56.002Z</time></trkpt><trkpt lat="45.478899792673104" lon="11.12009092963927"><ele>162.5</ele><time>2026-03-25T09:43:57.002Z</time></trkpt><trkpt lat="45.47893532202763" lon="11.120296669935094"><ele>157.25</ele><time>2026-03-25T09:43:58.002Z</time></trkpt><trkpt lat="45.478961874319104" lon="11.120503713491155"><ele>152.0</ele><time>2026-03-25T09:43:59.002Z</time></trkpt><trkpt lat="45.47897283796513" lon="11.120715007020957"><ele>150.0</ele><time>2026-03-25T09:44:00.002Z</time></trkpt><trkpt lat="45.47897427581516" lon="11.12092761021711"><ele>148.0</ele><time>2026-03-25T09:44:01.002Z</time></trkpt><trkpt lat="45.478972248667475" lon="11.121141399733311"><ele>146.0</ele><time>2026-03-25T09:44:02.002Z</time></trkpt><trkpt lat="45.47896935458953" lon="11.121354217638713"><ele>144.0</ele><time>2026-03-25T09:44:03.002Z</time></trkpt><trkpt lat="45.4789686548777" lon="11.121563534907809"><ele>143.0</ele><time>2026-03-25T09:44:04.002Z</time></trkpt><trkpt lat="45.478972163718815" lon="11.121785884205504"><ele>142.0</ele><time>2026-03-25T09:44:05.002Z</time></trkpt><trkpt lat="45.478976052327724" lon="11.121989647438765"><ele>141.0</ele><time>2026-03-25T09:44:06.002Z</time></trkpt><trkpt lat="45.47898098036481" lon="11.12218930722923"><ele>140.0</ele><time>2026-03-25T09:44:07.002Z</time></trkpt><trkpt lat="45.47898784368054" lon="11.122393147795831"><ele>140.25</ele><time>2026-03-25T09:44:08.002Z</time></trkpt><trkpt lat="45.47900263885043" lon="11.122590957182885"><ele>140.5</ele><time>2026-03-25T09:44:09.002Z</time></trkpt><trkpt lat="45.479019514835755" lon="11.122773041612833"><ele>140.75</ele><time>2026-03-25T09:44:10.002Z</time></trkpt><trkpt lat="45.47903490285183" lon="11.122943829330472"><ele>141.0</ele><time>2026-03-25T09:44:11.002Z</time></trkpt><trkpt lat="45.4790484600557" lon="11.123098946249115"><ele>141.0</ele><time>2026-03-25T09:44:12.002Z</time></trkpt><trkpt lat="45.47907724597237" lon="11.123225329138998"><ele>141.0</ele><time>2026-03-25T09:44:13.002Z</time></trkpt><trkpt lat="45.479094054919614" lon="11.123324828472368"><ele>141.0</ele><time>2026-03-25T09:44:14.002Z</time></trkpt><trkpt lat="45.47913633592908" lon="11.12340754303417"><ele>141.0</ele><time>2026-03-25T09:44:15.002Z</time></trkpt><trkpt lat="45.47924233190149" lon="11.123421343828275"><ele>141.0</ele><time>2026-03-25T09:44:16.002Z</time></trkpt><trkpt lat="45.479352111430444" lon="11.12340270393558"><ele>140.75</ele><time>2026-03-25T09:44:17.002Z</time></trkpt><trkpt lat="45.47947630475975" lon="11.12335404245019"><ele>140.5</ele><time>2026-03-25T09:44:18.002Z</time></trkpt><trkpt lat="45.47960340392383" lon="11.123306339777706"><ele>140.25</ele><time>2026-03-25T09:44:19.002Z</time></trkpt><trkpt lat="45.479726368412294" lon="11.123280114033996"><ele>140.0</ele><time>2026-03-25T09:44:20.002Z</time></trkpt><trkpt lat="45.47984027116172" lon="11.123252549357174"><ele>139.2</ele><time>2026-03-25T09:44:21.002Z</time></trkpt><trkpt lat="45.47994266115765" lon="11.123227455690866"><ele>138.4</ele><time>2026-03-25T09:44:22.002Z</time></trkpt><trkpt lat="45.480022310948264" lon="11.123224643132422"><ele>137.6</ele><time>2026-03-25T09:44:23.002Z</time></trkpt><trkpt lat="45.48009026095228" lon="11.12323282226507"><ele>136.8</ele><time>2026-03-25T09:44:24.002Z</time></trkpt><trkpt lat="45.480170893686164" lon="11.123399949925808"><ele>136.0</ele><time>2026-03-25T09:44:25.002Z</time></trkpt><trkpt lat="45.48023600203214" lon="11.123514974816215"><ele>136.75</ele><time>2026-03-25T09:44:26.002Z</time></trkpt><trkpt lat="45.48032660617593" lon="11.123643331402695"><ele>137.5</ele><time>2026-03-25T09:44:27.002Z</time></trkpt><trkpt lat="45.48041935583014" lon="11.123775769230312"><ele>138.25</ele><time>2026-03-25T09:44:28.002Z</time></trkpt><trkpt lat="45.48051459181251" lon="11.123918992564795"><ele>139.0</ele><time>2026-03-25T09:44:29.002Z</time></trkpt><trkpt lat="45.48060059269706" lon="11.124055981902966"><ele>137.0</ele><time>2026-03-25T09:44:30.002Z</time></trkpt><trkpt lat="45.480684559944244" lon="11.124197389276352"><ele>135.0</ele><time>2026-03-25T09:44:31.002Z</time></trkpt><trkpt lat="45.480774056339605" lon="11.124342434436452"><ele>133.0</ele><time>2026-03-25T09:44:32.002Z</time></trkpt><trkpt lat="45.480870269985815" lon="11.124495603238223"><ele>131.0</ele><time>2026-03-25T09:44:33.002Z</time></trkpt><trkpt lat="45.48095786374649" lon="11.124656997778251"><ele>131.0</ele><time>2026-03-25T09:44:34.002Z</time></trkpt><trkpt lat="45.48104297382318" lon="11.124795683671849"><ele>131.0</ele><time>2026-03-25T09:44:35.002Z</time></trkpt><trkpt lat="45.481113127077066" lon="11.124922448823849"><ele>131.0</ele><time>2026-03-25T09:44:36.002Z</time></trkpt><trkpt lat="45.48116418206426" lon="11.125040946194641"><ele>131.0</ele><time>2026-03-25T09:44:37Z</time></trkpt><trkpt lat="45.4812195945966" lon="11.125136815246393"><ele>131.0</ele><time>2026-03-25T09:44:38Z</time></trkpt><trkpt lat="45.481290687455285" lon="11.125238819615157"><ele>131.5</ele><time>2026-03-25T09:44:39Z</time></trkpt><trkpt lat="45.48136881248548" lon="11.12537274073008"><ele>132.0</ele><time>2026-03-25T09:44:40Z</time></trkpt><trkpt lat="45.48144890278733" lon="11.125522290552075"><ele>132.5</ele><time>2026-03-25T09:44:41Z</time></trkpt><trkpt lat="45.48152279310044" lon="11.12567725763776"><ele>133.0</ele><time>2026-03-25T09:44:42Z</time></trkpt><trkpt lat="45.48157816981943" lon="11.125838724690652"><ele>132.0</ele><time>2026-03-25T09:44:43Z</time></trkpt><trkpt lat="45.481617222846104" lon="11.126001020151755"><ele>131.0</ele><time>2026-03-25T09:44:44Z</time></trkpt><trkpt lat="45.48166510909697" lon="11.126145021362554"><ele>130.0</ele><time>2026-03-25T09:44:45Z</time></trkpt><trkpt lat="45.481722263795646" lon="11.126271939291208"><ele>129.0</ele><time>2026-03-25T09:44:46Z</time></trkpt><trkpt lat="45.48176720129305" lon="11.126396373402365"><ele>128.0</ele><time>2026-03-25T09:44:47Z</time></trkpt><trkpt lat="45.481799766373314" lon="11.126520601978422"><ele>127.2</ele><time>2026-03-25T09:44:48Z</time></trkpt><trkpt lat="45.481836767859214" lon="11.126617487062003"><ele>126.4</ele><time>2026-03-25T09:44:49Z</time></trkpt><trkpt lat="45.48187396973162" lon="11.126748832946065"><ele>125.60000000000001</ele><time>2026-03-25T09:44:51Z</time></trkpt><trkpt lat="45.48191174661043" lon="11.126884746458947"><ele>124.80000000000001</ele><time>2026-03-25T09:44:53Z</time></trkpt><trkpt lat="45.481942390386834" lon="11.126990343151546"><ele>124.0</ele><time>2026-03-25T09:44:55Z</time></trkpt><trkpt lat="45.48201059741516" lon="11.12710877909624"><ele>124.5</ele><time>2026-03-25T09:44:58Z</time></trkpt><trkpt lat="45.482172159421815" lon="11.127111410529789"><ele>125.0</ele><time>2026-03-25T09:45:00Z</time></trkpt><trkpt lat="45.48227185519983" lon="11.127110100632935"><ele>125.5</ele><time>2026-03-25T09:45:01Z</time></trkpt><trkpt lat="45.482378650382856" lon="11.127114306823653"><ele>126.0</ele><time>2026-03-25T09:45:02Z</time></trkpt><trkpt lat="45.48250146945169" lon="11.127122403551443"><ele>126.0</ele><time>2026-03-25T09:45:03Z</time></trkpt><trkpt lat="45.4826278394131" lon="11.127145113685776"><ele>126.0</ele><time>2026-03-25T09:45:04Z</time></trkpt><trkpt lat="45.48275334541414" lon="11.127141933141592"><ele>126.0</ele><time>2026-03-25T09:45:05Z</time></trkpt><trkpt lat="45.48289977822989" lon="11.127168934308589"><ele>126.0</ele><time>2026-03-25T09:45:06Z</time></trkpt><trkpt lat="45.48304273169877" lon="11.127196740365557"><ele>126.75</ele><time>2026-03-25T09:45:07Z</time></trkpt><trkpt lat="45.48318563050088" lon="11.127233289732617"><ele>127.5</ele><time>2026-03-25T09:45:08Z</time></trkpt><trkpt lat="45.48332653915363" lon="11.127271293768313"><ele>128.25</ele><time>2026-03-25T09:45:09Z</time></trkpt><trkpt lat="45.483466612139544" lon="11.127316847367108"><ele>129.0</ele><time>2026-03-25T09:45:10Z</time></trkpt><trkpt lat="45.48360092044484" lon="11.12736849902345"><ele>127.5</ele><time>2026-03-25T09:45:11Z</time></trkpt><trkpt lat="45.48372854120481" lon="11.12741323451674"><ele>126.0</ele><time>2026-03-25T09:45:12Z</time></trkpt><trkpt lat="45.483857402076794" lon="11.127464868652481"><ele>124.5</ele><time>2026-03-25T09:45:13.001Z</time></trkpt><trkpt lat="45.48398896817493" lon="11.127517807903939"><ele>123.0</ele><time>2026-03-25T09:45:14.001Z</time></trkpt><trkpt lat="45.484122189061324" lon="11.127563509266738"><ele>123.0</ele><time>2026-03-25T09:45:15.001Z</time></trkpt><trkpt lat="45.48426091448952" lon="11.127612486402603"><ele>123.0</ele><time>2026-03-25T09:45:16.001Z</time></trkpt><trkpt lat="45.48440675585852" lon="11.127650284372963"><ele>123.0</ele><time>2026-03-25T09:45:17.001Z</time></trkpt><trkpt lat="45.48455271492468" lon="11.127703253853758"><ele>123.0</ele><time>2026-03-25T09:45:18.001Z</time></trkpt><trkpt lat="45.484705559115916" lon="11.127766110020518"><ele>123.33333333333334</ele><time>2026-03-25T09:45:19.001Z</time></trkpt><trkpt lat="45.4848583051204" lon="11.127839755709127"><ele>123.66666666666667</ele><time>2026-03-25T09:45:20.001Z</time></trkpt><trkpt lat="45.48501364833411" lon="11.12791476047674"><ele>124.0</ele><time>2026-03-25T09:45:21.001Z</time></trkpt><trkpt lat="45.485164765303026" lon="11.127969281040059"><ele>124.0</ele><time>2026-03-25T09:45:22.001Z</time></trkpt><trkpt lat="45.48530522861513" lon="11.128014213579782"><ele>124.0</ele><time>2026-03-25T09:45:23.001Z</time></trkpt><trkpt lat="45.48544778371995" lon="11.12804640934291"><ele>124.0</ele><time>2026-03-25T09:45:24.001Z</time></trkpt><trkpt lat="45.48560496860329" lon="11.128047935064515"><ele>124.0</ele><time>2026-03-25T09:45:25.001Z</time></trkpt><trkpt lat="45.4857698216284" lon="11.128012832197058"><ele>123.66666666666667</ele><time>2026-03-25T09:45:26.001Z</time></trkpt><trkpt lat="45.485929960927294" lon="11.127955329792954"><ele>123.33333333333334</ele><time>2026-03-25T09:45:27.001Z</time></trkpt><trkpt lat="45.48608668717166" lon="11.127887505520567"><ele>123.0</ele><time>2026-03-25T09:45:28.001Z</time></trkpt><trkpt lat="45.486237690389046" lon="11.12782773659698"><ele>123.33333333333334</ele><time>2026-03-25T09:45:29.001Z</time></trkpt><trkpt lat="45.48637671017869" lon="11.127767595313909"><ele>123.66666666666667</ele><time>2026-03-25T09:45:30.001Z</time></trkpt><trkpt lat="45.486517871133856" lon="11.127681567640657"><ele>124.0</ele><time>2026-03-25T09:45:31.001Z</time></trkpt><trkpt lat="45.48664626595683" lon="11.12754685543553"><ele>127.66666666666667</ele><time>2026-03-25T09:45:32.001Z</time></trkpt><trkpt lat="45.48675524906393" lon="11.127380219195397"><ele>131.33333333333334</ele><time>2026-03-25T09:45:33.001Z</time></trkpt><trkpt lat="45.48685043847476" lon="11.12719371512116"><ele>135.0</ele><time>2026-03-25T09:45:34.001Z</time></trkpt><trkpt lat="45.486945771004436" lon="11.127028850033845"><ele>135.0</ele><time>2026-03-25T09:45:35.001Z</time></trkpt><trkpt lat="45.487060540048205" lon="11.126908791270461"><ele>135.0</ele><time>2026-03-25T09:45:36.001Z</time></trkpt><trkpt lat="45.4871924201221" lon="11.126829885704074"><ele>135.0</ele><time>2026-03-25T09:45:37.001Z</time></trkpt><trkpt lat="45.48733781944323" lon="11.126785225399269"><ele>135.0</ele><time>2026-03-25T09:45:38.001Z</time></trkpt><trkpt lat="45.487483744920574" lon="11.126817495327899"><ele>133.33333333333334</ele><time>2026-03-25T09:45:39.001Z</time></trkpt><trkpt lat="45.48763505301987" lon="11.126845002451118"><ele>131.66666666666669</ele><time>2026-03-25T09:45:40.001Z</time></trkpt><trkpt lat="45.4877901693158" lon="11.126853511265285"><ele>130.0</ele><time>2026-03-25T09:45:41.001Z</time></trkpt><trkpt lat="45.48794378469892" lon="11.126887144309762"><ele>130.0</ele><time>2026-03-25T09:45:42.001Z</time></trkpt><trkpt lat="45.48809653816035" lon="11.126917079407166"><ele>130.0</ele><time>2026-03-25T09:45:43.001Z</time></trkpt><trkpt lat="45.488244982725185" lon="11.126943127466696"><ele>130.0</ele><time>2026-03-25T09:45:44.001Z</time></trkpt><trkpt lat="45.48839677009575" lon="11.126966649190676"><ele>130.0</ele><time>2026-03-25T09:45:45.001Z</time></trkpt><trkpt lat="45.48855262033866" lon="11.12701663991265"><ele>130.0</ele><time>2026-03-25T09:45:46.001Z</time></trkpt><trkpt lat="45.4887055387496" lon="11.127044005734202"><ele>130.0</ele><time>2026-03-25T09:45:47.001Z</time></trkpt><trkpt lat="45.48884350925569" lon="11.127057612228338"><ele>130.5</ele><time>2026-03-25T09:45:48.001Z</time></trkpt><trkpt lat="45.4889706152421" lon="11.127078973979309"><ele>131.0</ele><time>2026-03-25T09:45:49.001Z</time></trkpt><trkpt lat="45.48908416702723" lon="11.127061062785732"><ele>131.5</ele><time>2026-03-25T09:45:50.001Z</time></trkpt><trkpt lat="45.48919240480894" lon="11.126975910764807"><ele>132.0</ele><time>2026-03-25T09:45:51.001Z</time></trkpt><trkpt lat="45.48929662502482" lon="11.126839390905454"><ele>132.0</ele><time>2026-03-25T09:45:52.001Z</time></trkpt><trkpt lat="45.489394245882565" lon="11.126680005105396"><ele>132.0</ele><time>2026-03-25T09:45:53.001Z</time></trkpt><trkpt lat="45.48949584298995" lon="11.126535503478168"><ele>132.0</ele><time>2026-03-25T09:45:54.001Z</time></trkpt><trkpt lat="45.489619513153166" lon="11.126425475102243"><ele>132.0</ele><time>2026-03-25T09:45:55.001Z</time></trkpt><trkpt lat="45.48976652581459" lon="11.126358203074895"><ele>136.66666666666666</ele><time>2026-03-25T09:45:56.001Z</time></trkpt><trkpt lat="45.48991901469464" lon="11.126316678086958"><ele>141.33333333333331</ele><time>2026-03-25T09:45:57.001Z</time></trkpt><trkpt lat="45.49007462959639" lon="11.126282491984087"><ele>146.0</ele><time>2026-03-25T09:45:58.001Z</time></trkpt><trkpt lat="45.490230894140474" lon="11.126247397071179"><ele>146.0</ele><time>2026-03-25T09:45:59.001Z</time></trkpt><trkpt lat="45.490386763217145" lon="11.126209669927803"><ele>146.0</ele><time>2026-03-25T09:46:00.001Z</time></trkpt><trkpt lat="45.490531142518186" lon="11.126169679216707"><ele>146.0</ele><time>2026-03-25T09:46:01.001Z</time></trkpt><trkpt lat="45.49066051212526" lon="11.126136417287453"><ele>146.0</ele><time>2026-03-25T09:46:02.001Z</time></trkpt><trkpt lat="45.490776897629694" lon="11.126107860908068"><ele>146.2</ele><time>2026-03-25T09:46:03.001Z</time></trkpt><trkpt lat="45.490883166308485" lon="11.126076976176495"><ele>146.39999999999998</ele><time>2026-03-25T09:46:04.001Z</time></trkpt><trkpt lat="45.49097684291999" lon="11.126042929600693"><ele>146.6</ele><time>2026-03-25T09:46:05.001Z</time></trkpt><trkpt lat="45.49105118284478" lon="11.126015356788818"><ele>146.79999999999998</ele><time>2026-03-25T09:46:06.001Z</time></trkpt><trkpt lat="45.491118377702115" lon="11.125992702319644"><ele>147.0</ele><time>2026-03-25T09:46:07.001Z</time></trkpt><trkpt lat="45.491241932769924" lon="11.125944816050396"><ele>146.79999999999998</ele><time>2026-03-25T09:46:09.001Z</time></trkpt><trkpt lat="45.49132679320176" lon="11.125940552266618"><ele>146.6</ele><time>2026-03-25T09:46:10.001Z</time></trkpt><trkpt lat="45.49142332655978" lon="11.125894055155431"><ele>146.39999999999998</ele><time>2026-03-25T09:46:11.001Z</time></trkpt><trkpt lat="45.491538222364404" lon="11.125877454748025"><ele>146.2</ele><time>2026-03-25T09:46:12.001Z</time></trkpt><trkpt lat="45.49164674722406" lon="11.125848355856732"><ele>146.0</ele><time>2026-03-25T09:46:13.001Z</time></trkpt><trkpt lat="45.49177438378399" lon="11.125837814992048"><ele>146.0</ele><time>2026-03-25T09:46:14.001Z</time></trkpt><trkpt lat="45.49190935292524" lon="11.12582834943151"><ele>146.0</ele><time>2026-03-25T09:46:15.001Z</time></trkpt><trkpt lat="45.49202429129492" lon="11.125819159798217"><ele>146.0</ele><time>2026-03-25T09:46:16.002Z</time></trkpt><trkpt lat="45.49212005550831" lon="11.125811817284044"><ele>146.0</ele><time>2026-03-25T09:46:17.002Z</time></trkpt><trkpt lat="45.492197617015094" lon="11.125801214210078"><ele>146.0</ele><time>2026-03-25T09:46:18.002Z</time></trkpt><trkpt lat="45.492272052124676" lon="11.125790074965096"><ele>145.8</ele><time>2026-03-25T09:46:19.002Z</time></trkpt><trkpt lat="45.492343865186456" lon="11.12577787502277"><ele>145.6</ele><time>2026-03-25T09:46:20.002Z</time></trkpt><trkpt lat="45.49244800534481" lon="11.125792814971945"><ele>145.4</ele><time>2026-03-25T09:46:22.002Z</time></trkpt><trkpt lat="45.49253300342709" lon="11.12578900102112"><ele>145.2</ele><time>2026-03-25T09:46:25.002Z</time></trkpt><trkpt lat="45.49261423439005" lon="11.125787364679422"><ele>145.0</ele><time>2026-03-25T09:47:07.999Z</time></trkpt><trkpt lat="45.49272565753091" lon="11.125777168100615"><ele>145.0</ele><time>2026-03-25T09:47:10Z</time></trkpt><trkpt lat="45.49280749711651" lon="11.125795351967817"><ele>145.0</ele><time>2026-03-25T09:47:11Z</time></trkpt><trkpt lat="45.492890862276845" lon="11.125861051162206"><ele>145.0</ele><time>2026-03-25T09:47:12Z</time></trkpt><trkpt lat="45.492967095818436" lon="11.125946963446122"><ele>145.0</ele><time>2026-03-25T09:47:13Z</time></trkpt><trkpt lat="45.49304793485668" lon="11.126057152014624"><ele>145.0</ele><time>2026-03-25T09:47:14Z</time></trkpt><trkpt lat="45.4931216400691" lon="11.1261739859416"><ele>145.25</ele><time>2026-03-25T09:47:15Z</time></trkpt><trkpt lat="45.49320546346119" lon="11.12630699010749"><ele>145.5</ele><time>2026-03-25T09:47:16Z</time></trkpt><trkpt lat="45.49330403475858" lon="11.12644978674222"><ele>145.75</ele><time>2026-03-25T09:47:17Z</time></trkpt><trkpt lat="45.493401626683166" lon="11.126591847546855"><ele>146.0</ele><time>2026-03-25T09:47:18Z</time></trkpt><trkpt lat="45.49350035785334" lon="11.126729792467307"><ele>146.0</ele><time>2026-03-25T09:47:19Z</time></trkpt><trkpt lat="45.49359368295711" lon="11.126871830409096"><ele>146.0</ele><time>2026-03-25T09:47:20Z</time></trkpt><trkpt lat="45.49368355309476" lon="11.127003082623546"><ele>146.0</ele><time>2026-03-25T09:47:21Z</time></trkpt><trkpt lat="45.49377061474359" lon="11.127143906144825"><ele>146.0</ele><time>2026-03-25T09:47:22Z</time></trkpt><trkpt lat="45.49384474861376" lon="11.127313608938772"><ele>144.75</ele><time>2026-03-25T09:47:23Z</time></trkpt><trkpt lat="45.49389195671554" lon="11.127503583137724"><ele>143.5</ele><time>2026-03-25T09:47:24Z</time></trkpt><trkpt lat="45.493908286025" lon="11.127687860514177"><ele>142.25</ele><time>2026-03-25T09:47:25Z</time></trkpt><trkpt lat="45.49388786803397" lon="11.127839100970732"><ele>141.0</ele><time>2026-03-25T09:47:26Z</time></trkpt><trkpt lat="45.493878613014054" lon="11.127957061575927"><ele>141.0</ele><time>2026-03-25T09:47:27Z</time></trkpt><trkpt lat="45.493866297083954" lon="11.128110814303424"><ele>141.0</ele><time>2026-03-25T09:47:29Z</time></trkpt><trkpt lat="45.49406626917234" lon="11.128193887251093"><ele>141.0</ele><time>2026-03-25T09:47:30Z</time></trkpt><trkpt lat="45.49418442686836" lon="11.128231658207929"><ele>141.0</ele><time>2026-03-25T09:47:31Z</time></trkpt><trkpt lat="45.494304819719666" lon="11.128289739040763"><ele>140.33333333333334</ele><time>2026-03-25T09:47:32Z</time></trkpt><trkpt lat="45.494446540155806" lon="11.12832681904109"><ele>139.66666666666669</ele><time>2026-03-25T09:47:33Z</time></trkpt><trkpt lat="45.49460314990481" lon="11.128333543763526"><ele>139.0</ele><time>2026-03-25T09:47:34Z</time></trkpt><trkpt lat="45.494755848519574" lon="11.128356568452975"><ele>139.0</ele><time>2026-03-25T09:47:35Z</time></trkpt><trkpt lat="45.49491874798989" lon="11.128368692085012"><ele>139.0</ele><time>2026-03-25T09:47:36Z</time></trkpt><trkpt lat="45.49508198840329" lon="11.12840602723573"><ele>139.0</ele><time>2026-03-25T09:47:37Z</time></trkpt><trkpt lat="45.49525123338072" lon="11.128425907589758"><ele>139.0</ele><time>2026-03-25T09:47:38Z</time></trkpt><trkpt lat="45.49541462629384" lon="11.128422733753462"><ele>139.0</ele><time>2026-03-25T09:47:39Z</time></trkpt><trkpt lat="45.49557432373947" lon="11.128450791082999"><ele>139.0</ele><time>2026-03-25T09:47:40Z</time></trkpt><trkpt lat="45.49573356027729" lon="11.128475665578414"><ele>140.0</ele><time>2026-03-25T09:47:41Z</time></trkpt><trkpt lat="45.49590107939157" lon="11.128499575164435"><ele>141.0</ele><time>2026-03-25T09:47:42Z</time></trkpt><trkpt lat="45.49605994384866" lon="11.128549187658482"><ele>142.0</ele><time>2026-03-25T09:47:43Z</time></trkpt><trkpt lat="45.496227525948136" lon="11.128579838145138"><ele>142.66666666666669</ele><time>2026-03-25T09:47:44Z</time></trkpt><trkpt lat="45.496388933727665" lon="11.128608873153029"><ele>143.33333333333334</ele><time>2026-03-25T09:47:45Z</time></trkpt><trkpt lat="45.496561969612976" lon="11.128636224514802"><ele>144.0</ele><time>2026-03-25T09:47:46Z</time></trkpt><trkpt lat="45.496726523710244" lon="11.128656806612776"><ele>144.0</ele><time>2026-03-25T09:47:47.001Z</time></trkpt><trkpt lat="45.49689770972437" lon="11.128675564148008"><ele>144.0</ele><time>2026-03-25T09:47:48.001Z</time></trkpt><trkpt lat="45.49707210497227" lon="11.12869391307323"><ele>144.0</ele><time>2026-03-25T09:47:49.001Z</time></trkpt><trkpt lat="45.4972424884001" lon="11.128711561649217"><ele>146.33333333333334</ele><time>2026-03-25T09:47:50.001Z</time></trkpt><trkpt lat="45.49741298645664" lon="11.128726912181651"><ele>148.66666666666669</ele><time>2026-03-25T09:47:51.001Z</time></trkpt><trkpt lat="45.4975885156636" lon="11.12873926552401"><ele>151.0</ele><time>2026-03-25T09:47:52.001Z</time></trkpt><trkpt lat="45.497761998738085" lon="11.128748802903504"><ele>151.66666666666669</ele><time>2026-03-25T09:47:53.001Z</time></trkpt><trkpt lat="45.49793418796379" lon="11.128747476326506"><ele>152.33333333333334</ele><time>2026-03-25T09:47:54.001Z</time></trkpt><trkpt lat="45.49810569910144" lon="11.12873239679163"><ele>153.0</ele><time>2026-03-25T09:47:55.001Z</time></trkpt><trkpt lat="45.49827865210923" lon="11.128705919970175"><ele>153.0</ele><time>2026-03-25T09:47:56.001Z</time></trkpt><trkpt lat="45.49845058998351" lon="11.128674096127643"><ele>153.0</ele><time>2026-03-25T09:47:57.001Z</time></trkpt><trkpt lat="45.4986019433386" lon="11.128644014186397"><ele>153.0</ele><time>2026-03-25T09:47:58.001Z</time></trkpt><trkpt lat="45.49873923831126" lon="11.128618418022562"><ele>152.0</ele><time>2026-03-25T09:47:59.001Z</time></trkpt><trkpt lat="45.49885837684866" lon="11.128624744272159"><ele>151.0</ele><time>2026-03-25T09:48:00.001Z</time></trkpt><trkpt lat="45.4989713339501" lon="11.128667436277935"><ele>150.0</ele><time>2026-03-25T09:48:01.001Z</time></trkpt><trkpt lat="45.49909696297457" lon="11.128748251694981"><ele>149.0</ele><time>2026-03-25T09:48:02.001Z</time></trkpt><trkpt lat="45.499232833786266" lon="11.128851746187712"><ele>149.0</ele><time>2026-03-25T09:48:03.001Z</time></trkpt><trkpt lat="45.49937024611002" lon="11.128962509659752"><ele>149.0</ele><time>2026-03-25T09:48:04.001Z</time></trkpt><trkpt lat="45.49950656649089" lon="11.129005239564655"><ele>149.0</ele><time>2026-03-25T09:48:05.001Z</time></trkpt><trkpt lat="45.49964034407288" lon="11.129024891957382"><ele>149.0</ele><time>2026-03-25T09:48:06.001Z</time></trkpt><trkpt lat="45.499771384152886" lon="11.128997471493866"><ele>149.75</ele><time>2026-03-25T09:48:07.001Z</time></trkpt><trkpt lat="45.49990743235749" lon="11.128935980523973"><ele>150.5</ele><time>2026-03-25T09:48:08.001Z</time></trkpt><trkpt lat="45.500042006687885" lon="11.128851230461418"><ele>151.25</ele><time>2026-03-25T09:48:09.001Z</time></trkpt><trkpt lat="45.50017577939133" lon="11.128760690000592"><ele>152.0</ele><time>2026-03-25T09:48:10.001Z</time></trkpt><trkpt lat="45.50031988599948" lon="11.128662628959711"><ele>152.66666666666666</ele><time>2026-03-25T09:48:11.001Z</time></trkpt><trkpt lat="45.50046227773395" lon="11.128562254462551"><ele>153.33333333333334</ele><time>2026-03-25T09:48:12.001Z</time></trkpt><trkpt lat="45.500613737576906" lon="11.128471726856128"><ele>154.0</ele><time>2026-03-25T09:48:13.001Z</time></trkpt><trkpt lat="45.500738231783004" lon="11.128356015548912"><ele>154.0</ele><time>2026-03-25T09:48:14.001Z</time></trkpt><trkpt lat="45.50081994772969" lon="11.128222110954544"><ele>154.0</ele><time>2026-03-25T09:48:15.001Z</time></trkpt><trkpt lat="45.500878997673176" lon="11.128142322037398"><ele>154.0</ele><time>2026-03-25T09:48:16.001Z</time></trkpt><trkpt lat="45.500965266057015" lon="11.128166414343237"><ele>154.0</ele><time>2026-03-25T09:48:18.001Z</time></trkpt><trkpt lat="45.50100867664434" lon="11.128262013842297"><ele>154.0</ele><time>2026-03-25T09:48:19.001Z</time></trkpt><trkpt lat="45.50106181637866" lon="11.128326103859433"><ele>154.0</ele><time>2026-03-25T09:48:20.001Z</time></trkpt><trkpt lat="45.501180449941735" lon="11.128231920164664"><ele>154.2</ele><time>2026-03-25T09:48:22.001Z</time></trkpt><trkpt lat="45.501227129848466" lon="11.128114426042659"><ele>154.4</ele><time>2026-03-25T09:48:23.001Z</time></trkpt><trkpt lat="45.50130940674618" lon="11.128043336499857"><ele>154.6</ele><time>2026-03-25T09:48:24.001Z</time></trkpt><trkpt lat="45.501409149105136" lon="11.127940974686224"><ele>154.8</ele><time>2026-03-25T09:48:25.001Z</time></trkpt><trkpt lat="45.50151036286582" lon="11.127841008476404"><ele>155.0</ele><time>2026-03-25T09:48:26.001Z</time></trkpt><trkpt lat="45.50162076914053" lon="11.127731963004502"><ele>155.0</ele><time>2026-03-25T09:48:27.001Z</time></trkpt><trkpt lat="45.501745865388806" lon="11.127611268834329"><ele>155.0</ele><time>2026-03-25T09:48:28.001Z</time></trkpt><trkpt lat="45.501868479913" lon="11.12749530724197"><ele>155.0</ele><time>2026-03-25T09:48:29.001Z</time></trkpt><trkpt lat="45.50198645732121" lon="11.1274017098595"><ele>155.0</ele><time>2026-03-25T09:48:30.001Z</time></trkpt><trkpt lat="45.502112141078264" lon="11.127337778630512"><ele>157.5</ele><time>2026-03-25T09:48:31.001Z</time></trkpt><trkpt lat="45.50224848913341" lon="11.127280753445087"><ele>160.0</ele><time>2026-03-25T09:48:32.001Z</time></trkpt><trkpt lat="45.50238802840647" lon="11.127240124696327"><ele>162.5</ele><time>2026-03-25T09:48:33.001Z</time></trkpt><trkpt lat="45.502526026440805" lon="11.127211833209095"><ele>165.0</ele><time>2026-03-25T09:48:34.001Z</time></trkpt><trkpt lat="45.502652766012936" lon="11.127188899078293"><ele>165.0</ele><time>2026-03-25T09:48:35.001Z</time></trkpt><trkpt lat="45.50277941773706" lon="11.127169080084277"><ele>165.0</ele><time>2026-03-25T09:48:36.002Z</time></trkpt><trkpt lat="45.50290207544052" lon="11.127163119242642"><ele>165.0</ele><time>2026-03-25T09:48:37.002Z</time></trkpt><trkpt lat="45.503021338409944" lon="11.127162048517109"><ele>165.0</ele><time>2026-03-25T09:48:38.002Z</time></trkpt><trkpt lat="45.503122798205624" lon="11.127161139637165"><ele>164.8</ele><time>2026-03-25T09:48:39.002Z</time></trkpt><trkpt lat="45.503206686314336" lon="11.127113432892456"><ele>164.6</ele><time>2026-03-25T09:48:40.002Z</time></trkpt><trkpt lat="45.503266320287345" lon="11.127236491364533"><ele>164.39999999999998</ele><time>2026-03-25T09:48:41.002Z</time></trkpt><trkpt lat="45.50333227983077" lon="11.127410759652978"><ele>164.2</ele><time>2026-03-25T09:48:43.002Z</time></trkpt><trkpt lat="45.503388371135266" lon="11.127521152662801"><ele>164.0</ele><time>2026-03-25T09:48:44.002Z</time></trkpt><trkpt lat="45.503444317873075" lon="11.127604891277999"><ele>163.66666666666666</ele><time>2026-03-25T09:48:45.002Z</time></trkpt><trkpt lat="45.50351383142191" lon="11.127644218857846"><ele>163.33333333333331</ele><time>2026-03-25T09:48:46.002Z</time></trkpt><trkpt lat="45.50359643443422" lon="11.127626686152942"><ele>163.0</ele><time>2026-03-25T09:48:47.002Z</time></trkpt><trkpt lat="45.503666828863565" lon="11.1276652354833"><ele>162.66666666666666</ele><time>2026-03-25T09:48:48.002Z</time></trkpt><trkpt lat="45.503724705962114" lon="11.127784522484973"><ele>162.33333333333334</ele><time>2026-03-25T09:48:48.999Z</time></trkpt><trkpt lat="45.503785250513765" lon="11.127852596656012"><ele>162.0</ele><time>2026-03-25T09:48:49.999Z</time></trkpt><trkpt lat="45.50386589040929" lon="11.127916635525969"><ele>163.0</ele><time>2026-03-25T09:48:51.999Z</time></trkpt><trkpt lat="45.503950029302366" lon="11.127898103957945"><ele>164.0</ele><time>2026-03-25T09:48:54.999Z</time></trkpt><trkpt lat="45.50401414702261" lon="11.127910690935888"><ele>165.0</ele><time>2026-03-25T09:48:56.999Z</time></trkpt><trkpt lat="45.50409669942014" lon="11.127896473204888"><ele>166.0</ele><time>2026-03-25T09:48:58.999Z</time></trkpt><trkpt lat="45.504206409614454" lon="11.127831501229414"><ele>167.0</ele><time>2026-03-25T09:49:00.999Z</time></trkpt><trkpt lat="45.50427123288812" lon="11.127805183984348"><ele>168.0</ele><time>2026-03-25T09:49:01.999Z</time></trkpt><trkpt lat="45.50434390381266" lon="11.127778257568234"><ele>168.0</ele><time>2026-03-25T09:49:02.999Z</time></trkpt><trkpt lat="45.504429208613544" lon="11.127737305925528"><ele>168.0</ele><time>2026-03-25T09:49:03.999Z</time></trkpt><trkpt lat="45.5045103555716" lon="11.12769231143681"><ele>168.0</ele><time>2026-03-25T09:49:05Z</time></trkpt><trkpt lat="45.50459086754824" lon="11.127633654853401"><ele>168.0</ele><time>2026-03-25T09:49:06Z</time></trkpt><trkpt lat="45.5046695403895" lon="11.12759041410028"><ele>168.0</ele><time>2026-03-25T09:49:07Z</time></trkpt><trkpt lat="45.50474196060493" lon="11.127546636937945"><ele>168.0</ele><time>2026-03-25T09:49:08Z</time></trkpt><trkpt lat="45.504824814373556" lon="11.127496698848189"><ele>168.4</ele><time>2026-03-25T09:49:09Z</time></trkpt><trkpt lat="45.50491977173747" lon="11.127432317277172"><ele>168.8</ele><time>2026-03-25T09:49:10Z</time></trkpt><trkpt lat="45.505025866023914" lon="11.127360741033566"><ele>169.2</ele><time>2026-03-25T09:49:11Z</time></trkpt><trkpt lat="45.50512469971755" lon="11.127296739225226"><ele>169.6</ele><time>2026-03-25T09:49:12Z</time></trkpt><trkpt lat="45.50521865254165" lon="11.127227902850041"><ele>170.0</ele><time>2026-03-25T09:49:13Z</time></trkpt><trkpt lat="45.50531965272073" lon="11.127156369114086"><ele>172.0</ele><time>2026-03-25T09:49:14Z</time></trkpt><trkpt lat="45.50541738121904" lon="11.127097752751007"><ele>174.0</ele><time>2026-03-25T09:49:15Z</time></trkpt><trkpt lat="45.5055213554802" lon="11.127067486881996"><ele>176.0</ele><time>2026-03-25T09:49:16Z</time></trkpt><trkpt lat="45.505608880457146" lon="11.127002565755875"><ele>178.0</ele><time>2026-03-25T09:49:17Z</time></trkpt><trkpt lat="45.505706895724295" lon="11.126960684086983"><ele>180.0</ele><time>2026-03-25T09:49:18Z</time></trkpt><trkpt lat="45.50580960236143" lon="11.12688583940883"><ele>180.0</ele><time>2026-03-25T09:49:19Z</time></trkpt><trkpt lat="45.50590655602675" lon="11.126803496208424"><ele>180.0</ele><time>2026-03-25T09:49:20Z</time></trkpt><trkpt lat="45.50600713778702" lon="11.126703604405709"><ele>180.0</ele><time>2026-03-25T09:49:21Z</time></trkpt><trkpt lat="45.506101319687474" lon="11.126566701966242"><ele>180.0</ele><time>2026-03-25T09:49:22Z</time></trkpt><trkpt lat="45.50620409834063" lon="11.12648635235787"><ele>180.75</ele><time>2026-03-25T09:49:23Z</time></trkpt><trkpt lat="45.506314386693425" lon="11.126385419532234"><ele>181.5</ele><time>2026-03-25T09:49:24Z</time></trkpt><trkpt lat="45.50642205887012" lon="11.126288162799446"><ele>182.25</ele><time>2026-03-25T09:49:25Z</time></trkpt><trkpt lat="45.50652905857702" lon="11.126208062811447"><ele>183.0</ele><time>2026-03-25T09:49:26Z</time></trkpt><trkpt lat="45.50663222027093" lon="11.126141810150605"><ele>183.0</ele><time>2026-03-25T09:49:27Z</time></trkpt><trkpt lat="45.50671903926949" lon="11.126087696312021"><ele>183.0</ele><time>2026-03-25T09:49:28Z</time></trkpt><trkpt lat="45.50680591044736" lon="11.126088677947482"><ele>183.0</ele><time>2026-03-25T09:49:29Z</time></trkpt><trkpt lat="45.50690817318159" lon="11.126133601731588"><ele>183.0</ele><time>2026-03-25T09:49:30Z</time></trkpt><trkpt lat="45.50703605906905" lon="11.126164152197354"><ele>183.0</ele><time>2026-03-25T09:49:31Z</time></trkpt><trkpt lat="45.50715511300381" lon="11.126164357942848"><ele>184.25</ele><time>2026-03-25T09:49:32Z</time></trkpt><trkpt lat="45.50727103784243" lon="11.126151692998572"><ele>185.5</ele><time>2026-03-25T09:49:33Z</time></trkpt><trkpt lat="45.507394006842944" lon="11.126097086256273"><ele>186.75</ele><time>2026-03-25T09:49:34Z</time></trkpt><trkpt lat="45.50751108132596" lon="11.126022011367683"><ele>188.0</ele><time>2026-03-25T09:49:35Z</time></trkpt><trkpt lat="45.5076159176683" lon="11.125963484752734"><ele>188.0</ele><time>2026-03-25T09:49:36Z</time></trkpt><trkpt lat="45.50770715546031" lon="11.125906303290403"><ele>188.0</ele><time>2026-03-25T09:49:37Z</time></trkpt><trkpt lat="45.50779649766631" lon="11.125836736048386"><ele>188.0</ele><time>2026-03-25T09:49:38Z</time></trkpt><trkpt lat="45.50788972840886" lon="11.12580037325129"><ele>188.0</ele><time>2026-03-25T09:49:39Z</time></trkpt><trkpt lat="45.50796291294084" lon="11.125700166884588"><ele>188.0</ele><time>2026-03-25T09:49:40Z</time></trkpt><trkpt lat="45.50803038957894" lon="11.12561826991109"><ele>191.2</ele><time>2026-03-25T09:49:41.001Z</time></trkpt><trkpt lat="45.5081021406264" lon="11.125557650754562"><ele>194.4</ele><time>2026-03-25T09:49:42.001Z</time></trkpt><trkpt lat="45.50818977029002" lon="11.125502155170706"><ele>197.6</ele><time>2026-03-25T09:49:43.001Z</time></trkpt><trkpt lat="45.50828909584733" lon="11.125440241020966"><ele>200.79999999999998</ele><time>2026-03-25T09:49:44.001Z</time></trkpt><trkpt lat="45.508382128809785" lon="11.125392605877225"><ele>204.0</ele><time>2026-03-25T09:49:45.001Z</time></trkpt><trkpt lat="45.5084718681913" lon="11.125369694544537"><ele>204.0</ele><time>2026-03-25T09:49:46.001Z</time></trkpt><trkpt lat="45.50858713076114" lon="11.125357989157257"><ele>204.0</ele><time>2026-03-25T09:49:47.001Z</time></trkpt><trkpt lat="45.5087071530085" lon="11.125345238591677"><ele>204.0</ele><time>2026-03-25T09:49:48.001Z</time></trkpt><trkpt lat="45.50881397024683" lon="11.125311868355688"><ele>204.0</ele><time>2026-03-25T09:49:49.001Z</time></trkpt><trkpt lat="45.508892644590745" lon="11.125301213226296"><ele>204.0</ele><time>2026-03-25T09:49:50.001Z</time></trkpt><trkpt lat="45.508963957672066" lon="11.125301324673853"><ele>202.16666666666666</ele><time>2026-03-25T09:49:51.001Z</time></trkpt><trkpt lat="45.509061546655666" lon="11.125316541435408"><ele>200.33333333333331</ele><time>2026-03-25T09:49:53.001Z</time></trkpt><trkpt lat="45.50912647462805" lon="11.125308560882807"><ele>198.5</ele><time>2026-03-25T09:49:55.001Z</time></trkpt><trkpt lat="45.509207106687576" lon="11.125292413835313"><ele>196.66666666666666</ele><time>2026-03-25T09:49:57.001Z</time></trkpt><trkpt lat="45.50931137569131" lon="11.125318439294388"><ele>194.83333333333331</ele><time>2026-03-25T09:49:59.001Z</time></trkpt><trkpt lat="45.50937701010543" lon="11.12536950429643"><ele>193.0</ele><time>2026-03-25T09:50:01.001Z</time></trkpt><trkpt lat="45.509465383288536" lon="11.125286346442582"><ele>193.00000000000003</ele><time>2026-03-25T09:50:04.001Z</time></trkpt><trkpt lat="45.50951823900589" lon="11.12523265230424"><ele>193.0</ele><time>2026-03-25T09:50:05.001Z</time></trkpt><trkpt lat="45.50957547375891" lon="11.125189540038349"><ele>193.0</ele><time>2026-03-25T09:50:06.001Z</time></trkpt><trkpt lat="45.509629111736444" lon="11.125139870528669"><ele>193.0</ele><time>2026-03-25T09:50:07.001Z</time></trkpt><trkpt lat="45.5096862473648" lon="11.125063537608968"><ele>193.0</ele><time>2026-03-25T09:50:08.001Z</time></trkpt><trkpt lat="45.509743924182416" lon="11.124994865642028"><ele>193.00000000000003</ele><time>2026-03-25T09:50:09.001Z</time></trkpt><trkpt lat="45.50980018578215" lon="11.124921612874868"><ele>193.0</ele><time>2026-03-25T09:50:10.001Z</time></trkpt><trkpt lat="45.50986403556957" lon="11.12485963201902"><ele>194.99999999999997</ele><time>2026-03-25T09:50:11.001Z</time></trkpt><trkpt lat="45.509980444200195" lon="11.124828399673266"><ele>197.0</ele><time>2026-03-25T09:50:13.001Z</time></trkpt><trkpt lat="45.51004367247028" lon="11.124801662073194"><ele>199.0</ele><time>2026-03-25T09:50:14.001Z</time></trkpt><trkpt lat="45.51011488639963" lon="11.124769073423245"><ele>201.0</ele><time>2026-03-25T09:50:15.001Z</time></trkpt><trkpt lat="45.510204613816995" lon="11.124661770176434"><ele>202.99999999999997</ele><time>2026-03-25T09:50:17.001Z</time></trkpt><trkpt lat="45.5102704436683" lon="11.124622789160677"><ele>205.0</ele><time>2026-03-25T09:50:18.001Z</time></trkpt><trkpt lat="45.510353321655" lon="11.124585488367153"><ele>204.6</ele><time>2026-03-25T09:50:20.001Z</time></trkpt><trkpt lat="45.5104411137809" lon="11.124530694246479"><ele>204.2</ele><time>2026-03-25T09:50:22.001Z</time></trkpt><trkpt lat="45.51053671994474" lon="11.124502802098188"><ele>203.8</ele><time>2026-03-25T09:50:24.001Z</time></trkpt><trkpt lat="45.5106498256335" lon="11.124412510314261"><ele>203.4</ele><time>2026-03-25T09:50:26.002Z</time></trkpt><trkpt lat="45.51074881226873" lon="11.124311279403665"><ele>203.0</ele><time>2026-03-25T09:50:28.002Z</time></trkpt><trkpt lat="45.510840727969125" lon="11.124263321217414"><ele>203.0</ele><time>2026-03-25T09:50:30.002Z</time></trkpt><trkpt lat="45.510941726450966" lon="11.124299833688585"><ele>203.0</ele><time>2026-03-25T09:50:32.002Z</time></trkpt><trkpt lat="45.51103640867084" lon="11.124320569394525"><ele>203.0</ele><time>2026-03-25T09:50:35.002Z</time></trkpt><trkpt lat="45.51115961720297" lon="11.124305826008596"><ele>203.0</ele><time>2026-03-25T09:50:37.002Z</time></trkpt><trkpt lat="45.51123304284625" lon="11.124300917194038"><ele>203.0</ele><time>2026-03-25T09:50:38.002Z</time></trkpt><trkpt lat="45.51130675706298" lon="11.124304827176035"><ele>204.33333333333334</ele><time>2026-03-25T09:50:39.002Z</time></trkpt><trkpt lat="45.5114390868739" lon="11.124283117465989"><ele>205.66666666666669</ele><time>2026-03-25T09:50:41.002Z</time></trkpt><trkpt lat="45.51150462249476" lon="11.124266233779021"><ele>207.0</ele><time>2026-03-25T09:50:42.002Z</time></trkpt><trkpt lat="45.51156296713165" lon="11.124310763553703"><ele>208.33333333333331</ele><time>2026-03-25T09:50:43.002Z</time></trkpt><trkpt lat="45.511644937080256" lon="11.124332010335872"><ele>209.66666666666666</ele><time>2026-03-25T09:50:44.002Z</time></trkpt><trkpt lat="45.5117214009855" lon="11.124347190014417"><ele>211.0</ele><time>2026-03-25T09:50:45.002Z</time></trkpt><trkpt lat="45.51178544707323" lon="11.124351340203981"><ele>211.0</ele><time>2026-03-25T09:50:46.002Z</time></trkpt><trkpt lat="45.51185881700754" lon="11.124340769746803"><ele>211.0</ele><time>2026-03-25T09:50:47.002Z</time></trkpt><trkpt lat="45.51193551019003" lon="11.124326365948475"><ele>211.0</ele><time>2026-03-25T09:50:48.002Z</time></trkpt><trkpt lat="45.51200673520787" lon="11.12431688260334"><ele>211.0</ele><time>2026-03-25T09:50:49.002Z</time></trkpt><trkpt lat="45.51208071688111" lon="11.124293464013979"><ele>211.0</ele><time>2026-03-25T09:50:50.002Z</time></trkpt><trkpt lat="45.51213856998366" lon="11.12425358460338"><ele>211.0</ele><time>2026-03-25T09:50:51.002Z</time></trkpt><trkpt lat="45.51221011823146" lon="11.124229981493636"><ele>211.0</ele><time>2026-03-25T09:50:52.002Z</time></trkpt><trkpt lat="45.51230343088994" lon="11.124204289512054"><ele>213.0</ele><time>2026-03-25T09:50:53.002Z</time></trkpt><trkpt lat="45.512404170607084" lon="11.124134221642901"><ele>215.0</ele><time>2026-03-25T09:50:54.002Z</time></trkpt><trkpt lat="45.512500627335676" lon="11.124047148239018"><ele>217.00000000000003</ele><time>2026-03-25T09:50:54.999Z</time></trkpt><trkpt lat="45.512596926670724" lon="11.123974917267159"><ele>219.0</ele><time>2026-03-25T09:50:55.999Z</time></trkpt><trkpt lat="45.51266558618174" lon="11.123927121330198"><ele>221.0</ele><time>2026-03-25T09:50:56.999Z</time></trkpt><trkpt lat="45.51273461764296" lon="11.123918351160514"><ele>220.60000000000002</ele><time>2026-03-25T09:50:57.999Z</time></trkpt><trkpt lat="45.512820713206516" lon="11.123896924589253"><ele>220.20000000000002</ele><time>2026-03-25T09:50:58.999Z</time></trkpt><trkpt lat="45.51292469376517" lon="11.123859352942373"><ele>219.79999999999998</ele><time>2026-03-25T09:50:59.999Z</time></trkpt><trkpt lat="45.51301838362413" lon="11.123853210829209"><ele>219.39999999999998</ele><time>2026-03-25T09:51:00.999Z</time></trkpt><trkpt lat="45.51309253815049" lon="11.12380570414291"><ele>219.0</ele><time>2026-03-25T09:51:01.999Z</time></trkpt><trkpt lat="45.51317761437298" lon="11.123777584794164"><ele>219.0</ele><time>2026-03-25T09:51:02.999Z</time></trkpt><trkpt lat="45.513249225768405" lon="11.1237723034617"><ele>219.0</ele><time>2026-03-25T09:51:03.999Z</time></trkpt><trkpt lat="45.513326677630786" lon="11.123776912691099"><ele>219.0</ele><time>2026-03-25T09:51:04.999Z</time></trkpt><trkpt lat="45.51341987766088" lon="11.12377159942607"><ele>219.0</ele><time>2026-03-25T09:51:05.999Z</time></trkpt><trkpt lat="45.51351818210118" lon="11.123788751182566"><ele>219.0</ele><time>2026-03-25T09:51:06.999Z</time></trkpt><trkpt lat="45.513592210672975" lon="11.123777365965525"><ele>219.0</ele><time>2026-03-25T09:51:07.999Z</time></trkpt><trkpt lat="45.51367710246236" lon="11.123736881069801"><ele>219.33333333333334</ele><time>2026-03-25T09:51:08.999Z</time></trkpt><trkpt lat="45.513756817325785" lon="11.123687231597295"><ele>219.66666666666669</ele><time>2026-03-25T09:51:09.999Z</time></trkpt><trkpt lat="45.5138240390965" lon="11.123611882905536"><ele>220.0</ele><time>2026-03-25T09:51:10.999Z</time></trkpt><trkpt lat="45.51389021263477" lon="11.123596198266823"><ele>220.33333333333334</ele><time>2026-03-25T09:51:11.999Z</time></trkpt><trkpt lat="45.514014760117995" lon="11.12353756524716"><ele>220.66666666666669</ele><time>2026-03-25T09:51:14Z</time></trkpt><trkpt lat="45.514078720276665" lon="11.123505211462945"><ele>221.0</ele><time>2026-03-25T09:51:15Z</time></trkpt><trkpt lat="45.51418512173768" lon="11.123536280987016"><ele>221.0</ele><time>2026-03-25T09:51:17Z</time></trkpt><trkpt lat="45.514210780175155" lon="11.123268946071613"><ele>221.0</ele><time>2026-03-25T09:51:25Z</time></trkpt><trkpt lat="45.51415148913573" lon="11.123214232223857"><ele>221.0</ele><time>2026-03-25T09:51:29Z</time></trkpt><trkpt lat="45.51417502859694" lon="11.123069128169845"><ele>221.0</ele><time>2026-03-25T09:51:33Z</time></trkpt><trkpt lat="45.51423778954497" lon="11.122966976821978"><ele>221.00000000000003</ele><time>2026-03-25T09:51:35Z</time></trkpt><trkpt lat="45.514298978928906" lon="11.122890389695895"><ele>221.0</ele><time>2026-03-25T09:51:37Z</time></trkpt><trkpt lat="45.51433580295692" lon="11.122765685204788"><ele>221.0</ele><time>2026-03-25T09:51:39Z</time></trkpt><trkpt lat="45.51434982755272" lon="11.122656774797507"><ele>221.0</ele><time>2026-03-25T09:51:41Z</time></trkpt><trkpt lat="45.514351549327095" lon="11.122566370636365"><ele>221.00000000000003</ele><time>2026-03-25T09:51:42Z</time></trkpt><trkpt lat="45.51435482335333" lon="11.122475172462227"><ele>221.0</ele><time>2026-03-25T09:51:43Z</time></trkpt><trkpt lat="45.51439771650371" lon="11.122317186444665"><ele>222.4</ele><time>2026-03-25T09:51:45Z</time></trkpt><trkpt lat="45.51444551315999" lon="11.122209608901192"><ele>223.8</ele><time>2026-03-25T09:51:47.001Z</time></trkpt><trkpt lat="45.51452172930198" lon="11.122127309183616"><ele>225.20000000000002</ele><time>2026-03-25T09:51:50.001Z</time></trkpt><trkpt lat="45.51458946018057" lon="11.122013644512913"><ele>226.60000000000002</ele><time>2026-03-25T09:51:53.001Z</time></trkpt><trkpt lat="45.514693954325786" lon="11.121889124539175"><ele>228.0</ele><time>2026-03-25T09:51:54.001Z</time></trkpt><trkpt lat="45.51477818412354" lon="11.121862037053855"><ele>228.33333333333334</ele><time>2026-03-25T09:51:56.001Z</time></trkpt><trkpt lat="45.514845962968856" lon="11.121794119778151"><ele>228.66666666666669</ele><time>2026-03-25T09:51:58.001Z</time></trkpt><trkpt lat="45.51490896617518" lon="11.121761712713653"><ele>229.0</ele><time>2026-03-25T09:52:01.001Z</time></trkpt><trkpt lat="45.514976273180324" lon="11.121731709134716"><ele>229.33333333333334</ele><time>2026-03-25T09:52:03.001Z</time></trkpt><trkpt lat="45.51506934958131" lon="11.121688953542447"><ele>229.66666666666669</ele><time>2026-03-25T09:52:05.001Z</time></trkpt><trkpt lat="45.51513938441639" lon="11.121575860953705"><ele>230.0</ele><time>2026-03-25T09:52:07.001Z</time></trkpt><trkpt lat="45.51521649697886" lon="11.121547415049376"><ele>232.50000000000003</ele><time>2026-03-25T09:52:10.001Z</time></trkpt><trkpt lat="45.51528454068406" lon="11.12147652752424"><ele>235.0</ele><time>2026-03-25T09:52:12.001Z</time></trkpt><trkpt lat="45.515323899467" lon="11.12138682355741"><ele>237.5</ele><time>2026-03-25T09:52:14.001Z</time></trkpt><trkpt lat="45.515304863526964" lon="11.121267417681569"><ele>240.0</ele><time>2026-03-25T09:52:22.001Z</time></trkpt><trkpt lat="45.51533967021053" lon="11.121178898474842"><ele>242.50000000000003</ele><time>2026-03-25T09:52:25.001Z</time></trkpt><trkpt lat="45.51536070921243" lon="11.121042862035107"><ele>245.0</ele><time>2026-03-25T09:52:28.002Z</time></trkpt><trkpt lat="45.515343465191336" lon="11.120911137313044"><ele>245.00000000000003</ele><time>2026-03-25T09:52:31.002Z</time></trkpt><trkpt lat="45.5154027015539" lon="11.120870165683945"><ele>245.0</ele><time>2026-03-25T09:52:33.002Z</time></trkpt><trkpt lat="45.515498225264224" lon="11.120816108750343"><ele>245.0</ele><time>2026-03-25T09:52:36.002Z</time></trkpt><trkpt lat="45.51554511934008" lon="11.120721746097232"><ele>245.0</ele><time>2026-03-25T09:52:39.002Z</time></trkpt><trkpt lat="45.51557685037766" lon="11.120638734427473"><ele>245.00000000000003</ele><time>2026-03-25T09:52:43.002Z</time></trkpt><trkpt lat="45.51564264635776" lon="11.120598937056519"><ele>245.0</ele><time>2026-03-25T09:52:47.002Z</time></trkpt><trkpt lat="45.51566221564073" lon="11.120487992674452"><ele>246.14285714285714</ele><time>2026-03-25T09:52:53.002Z</time></trkpt><trkpt lat="45.51571783822506" lon="11.120439048375928"><ele>247.28571428571428</ele><time>2026-03-25T09:52:57.002Z</time></trkpt><trkpt lat="45.51577722931925" lon="11.120377000325524"><ele>248.42857142857144</ele><time>2026-03-25T09:53:01Z</time></trkpt><trkpt lat="45.51579248702783" lon="11.120289766169325"><ele>249.57142857142858</ele><time>2026-03-25T09:53:13Z</time></trkpt><trkpt lat="45.515860902055856" lon="11.120248348213961"><ele>250.71428571428572</ele><time>2026-03-25T09:53:19Z</time></trkpt><trkpt lat="45.51590850843535" lon="11.120176879166241"><ele>251.8571428571429</ele><time>2026-03-25T09:53:34Z</time></trkpt><trkpt lat="45.516006773946565" lon="11.120176215785222"><ele>253.00000000000003</ele><time>2026-03-25T09:53:40.001Z</time></trkpt><trkpt lat="45.51606716562512" lon="11.120140117449017"><ele>252.99999999999997</ele><time>2026-03-25T09:53:52.001Z</time></trkpt><trkpt lat="45.51612679258444" lon="11.12004247511633"><ele>253.0</ele><time>2026-03-25T09:53:56.001Z</time></trkpt><trkpt lat="45.51616106214328" lon="11.119963803698798"><ele>253.0</ele><time>2026-03-25T09:53:58.001Z</time></trkpt><trkpt lat="45.51626845947245" lon="11.119963441039513"><ele>253.0</ele><time>2026-03-25T09:54:28.002Z</time></trkpt><trkpt lat="45.516340506510105" lon="11.119920448333938"><ele>252.99999999999997</ele><time>2026-03-25T09:54:31.002Z</time></trkpt><trkpt lat="45.51640457278845" lon="11.119924836963657"><ele>253.0</ele><time>2026-03-25T09:54:33.002Z</time></trkpt><trkpt lat="45.51647147010844" lon="11.119948178188865"><ele>252.33333333333331</ele><time>2026-03-25T09:54:46.002Z</time></trkpt><trkpt lat="45.51653404675303" lon="11.119929886598774"><ele>251.66666666666666</ele><time>2026-03-25T09:54:53.002Z</time></trkpt><trkpt lat="45.516647882353546" lon="11.119870634727919"><ele>251.0</ele><time>2026-03-25T09:55:00.003Z</time></trkpt><trkpt lat="45.516719098852334" lon="11.119835952164049"><ele>250.33333333333331</ele><time>2026-03-25T09:55:06.003Z</time></trkpt><trkpt lat="45.516762284729985" lon="11.119768825977925"><ele>249.66666666666666</ele><time>2026-03-25T09:55:11.001Z</time></trkpt><trkpt lat="45.51674381766624" lon="11.119653462064907"><ele>249.0</ele><time>2026-03-25T09:55:18.001Z</time></trkpt><trkpt lat="45.5167981014828" lon="11.119564273376369"><ele>250.83333333333334</ele><time>2026-03-25T09:55:20.001Z</time></trkpt><trkpt lat="45.516743984318126" lon="11.11950548865216"><ele>252.66666666666669</ele><time>2026-03-25T09:55:30.001Z</time></trkpt><trkpt lat="45.516694335612" lon="11.119413432730608"><ele>254.5</ele><time>2026-03-25T09:55:34.001Z</time></trkpt><trkpt lat="45.516691562931285" lon="11.119292126685382"><ele>256.33333333333337</ele><time>2026-03-25T09:56:06.001Z</time></trkpt><trkpt lat="45.51678252902638" lon="11.119226525195744"><ele>258.1666666666667</ele><time>2026-03-25T09:57:30.001Z</time></trkpt><trkpt lat="45.51674359024434" lon="11.119152903683812"><ele>260.0</ele><time>2026-03-25T09:58:10.001Z</time></trkpt><trkpt lat="45.51680961358829" lon="11.119012598026366"><ele>265.0</ele><time>2026-03-25T10:01:18.002Z</time></trkpt><trkpt lat="45.516817246372675" lon="11.118914930433009"><ele>270.0</ele><time>2026-03-25T10:01:38.001Z</time></trkpt><trkpt lat="45.51684672516439" lon="11.11883418387104"><ele>275.0</ele><time>2026-03-25T10:03:18.002Z</time></trkpt><trkpt lat="45.51682061963104" lon="11.118752203637209"><ele>280.0</ele><time>2026-03-25T10:03:47Z</time></trkpt><trkpt lat="45.51683566314163" lon="11.118662123960881"><ele>285.0</ele><time>2026-03-25T10:03:50Z</time></trkpt><trkpt lat="45.51689644685406" lon="11.118592965750516"><ele>290.0</ele><time>2026-03-25T10:05:38.999Z</time></trkpt><trkpt lat="45.51700563902318" lon="11.11850818463968"><ele>290.0</ele><time>2026-03-25T10:06:17Z</time></trkpt><trkpt lat="45.51707282944852" lon="11.118476264208855"><ele>290.0</ele><time>2026-03-25T10:06:20Z</time></trkpt><trkpt lat="45.517052625736156" lon="11.118343733994248"><ele>290.0</ele><time>2026-03-25T10:06:32Z</time></trkpt><trkpt lat="45.51699825101413" lon="11.118269762731378"><ele>290.0</ele><time>2026-03-25T10:06:38Z</time></trkpt><trkpt lat="45.51697854309045" lon="11.118172973273339"><ele>290.0</ele><time>2026-03-25T10:06:40Z</time></trkpt><trkpt lat="45.51695983895148" lon="11.118078819089211"><ele>290.0</ele><time>2026-03-25T10:06:43Z</time></trkpt><trkpt lat="45.517028070053044" lon="11.118089741503955"><ele>290.0</ele><time>2026-03-25T10:06:47Z</time></trkpt><trkpt lat="45.51711568999409" lon="11.118104508414708"><ele>296.33333333333337</ele><time>2026-03-25T10:06:54Z</time></trkpt><trkpt lat="45.51720207844091" lon="11.118079617913764"><ele>302.6666666666667</ele><time>2026-03-25T10:06:57.001Z</time></trkpt><trkpt lat="45.5172209331413" lon="11.117960076653326"><ele>309.0</ele><time>2026-03-25T10:12:01.001Z</time></trkpt><trkpt lat="45.517198384795996" lon="11.117874558206987"><ele>315.3333333333333</ele><time>2026-03-25T10:15:10.001Z</time></trkpt><trkpt lat="45.5171684765853" lon="11.117723422138363"><ele>321.66666666666663</ele><time>2026-03-25T10:17:10Z</time></trkpt><trkpt lat="45.51715128938451" lon="11.117619612316936"><ele>328.0</ele><time>2026-03-25T10:17:17Z</time></trkpt><trkpt lat="45.51716246158168" lon="11.117516312049709"><ele>328.0</ele><time>2026-03-25T10:17:21Z</time></trkpt><trkpt lat="45.5171913983663" lon="11.117416195307898"><ele>328.0</ele><time>2026-03-25T10:19:04Z</time></trkpt><trkpt lat="45.51724168786596" lon="11.117338831728592"><ele>328.0</ele><time>2026-03-25T10:19:06Z</time></trkpt><trkpt lat="45.5172842068743" lon="11.117265456106834"><ele>328.0</ele><time>2026-03-25T10:19:10Z</time></trkpt><trkpt lat="45.51735860842058" lon="11.117289358577237"><ele>328.0</ele><time>2026-03-25T10:19:13Z</time></trkpt><trkpt lat="45.51740693090628" lon="11.117372524162539"><ele>328.0</ele><time>2026-03-25T10:19:15Z</time></trkpt><trkpt lat="45.517511661756316" lon="11.11719688664537"><ele>329.66666666666663</ele><time>2026-03-25T10:19:20.001Z</time></trkpt><trkpt lat="45.51757014043395" lon="11.117140763425162"><ele>331.3333333333333</ele><time>2026-03-25T10:19:22.001Z</time></trkpt><trkpt lat="45.51766603562752" lon="11.117131179276173"><ele>333.0</ele><time>2026-03-25T10:19:24.001Z</time></trkpt><trkpt lat="45.51775128257021" lon="11.117115513243807"><ele>334.6666666666667</ele><time>2026-03-25T10:19:26.001Z</time></trkpt><trkpt lat="45.517795049934776" lon="11.117019945491432"><ele>336.33333333333337</ele><time>2026-03-25T10:19:48.001Z</time></trkpt><trkpt lat="45.51789504132665" lon="11.116980806962646"><ele>338.0</ele><time>2026-03-25T10:19:52.001Z</time></trkpt><trkpt lat="45.518032170693566" lon="11.116905098650848"><ele>338.0</ele><time>2026-03-25T10:19:54.001Z</time></trkpt><trkpt lat="45.51809322053212" lon="11.116848069740485"><ele>338.0</ele><time>2026-03-25T10:19:55.001Z</time></trkpt><trkpt lat="45.518165430461416" lon="11.116811854211667"><ele>338.0</ele><time>2026-03-25T10:19:56.001Z</time></trkpt><trkpt lat="45.51821189523236" lon="11.116744881896658"><ele>338.0</ele><time>2026-03-25T10:19:57.001Z</time></trkpt><trkpt lat="45.51831520431282" lon="11.11662684914867"><ele>338.0</ele><time>2026-03-25T10:19:59.001Z</time></trkpt><trkpt lat="45.51839317662611" lon="11.116542882601697"><ele>338.0</ele><time>2026-03-25T10:20:00.001Z</time></trkpt><trkpt lat="45.5184188707572" lon="11.116458984074889"><ele>340.33333333333337</ele><time>2026-03-25T10:20:01.001Z</time></trkpt><trkpt lat="45.51846463685023" lon="11.11637870079612"><ele>342.6666666666667</ele><time>2026-03-25T10:20:02.001Z</time></trkpt><trkpt lat="45.51851994920055" lon="11.116294916964549"><ele>345.0</ele><time>2026-03-25T10:20:03.001Z</time></trkpt><trkpt lat="45.5185806849147" lon="11.116229737028245"><ele>347.3333333333333</ele><time>2026-03-25T10:20:04.001Z</time></trkpt><trkpt lat="45.518651649484184" lon="11.11619693417088"><ele>349.66666666666663</ele><time>2026-03-25T10:20:05.001Z</time></trkpt><trkpt lat="45.5187141225758" lon="11.11615770398569"><ele>352.0</ele><time>2026-03-25T10:20:07.001Z</time></trkpt><trkpt lat="45.51879437443849" lon="11.116245121799578"><ele>352.0</ele><time>2026-03-25T10:20:09.001Z</time></trkpt><trkpt lat="45.51885391609233" lon="11.116312705782462"><ele>352.0</ele><time>2026-03-25T10:20:11.001Z</time></trkpt><trkpt lat="45.51894515669781" lon="11.116314683866742"><ele>352.0</ele><time>2026-03-25T10:20:12.001Z</time></trkpt><trkpt lat="45.51901196779725" lon="11.116306429833097"><ele>352.0</ele><time>2026-03-25T10:20:13.001Z</time></trkpt><trkpt lat="45.51908443439426" lon="11.116330051022597"><ele>352.0</ele><time>2026-03-25T10:20:14.001Z</time></trkpt><trkpt lat="45.51920438981982" lon="11.116355427487264"><ele>352.0</ele><time>2026-03-25T10:20:16.001Z</time></trkpt><trkpt lat="45.51931191801081" lon="11.116395272342439"><ele>352.0</ele><time>2026-03-25T10:20:18.001Z</time></trkpt><trkpt lat="45.519435322014225" lon="11.11645962600568"><ele>352.0</ele><time>2026-03-25T10:20:20Z</time></trkpt><trkpt lat="45.51955764883138" lon="11.116511442489921"><ele>352.0</ele><time>2026-03-25T10:20:22Z</time></trkpt><trkpt lat="45.519625767266824" lon="11.116518100447092"><ele>352.0</ele><time>2026-03-25T10:20:23Z</time></trkpt><trkpt lat="45.519695234090015" lon="11.116524326213264"><ele>352.0</ele><time>2026-03-25T10:20:24Z</time></trkpt><trkpt lat="45.51980820846509" lon="11.116523906859266"><ele>345.0</ele><time>2026-03-25T10:20:26Z</time></trkpt><trkpt lat="45.51987690469203" lon="11.116596441005765"><ele>338.0</ele><time>2026-03-25T10:20:28Z</time></trkpt><trkpt lat="45.519925791230754" lon="11.116710036929955"><ele>331.0</ele><time>2026-03-25T10:20:31Z</time></trkpt><trkpt lat="45.5199878693506" lon="11.116828033662163"><ele>324.0</ele><time>2026-03-25T10:20:33Z</time></trkpt><trkpt lat="45.52006502947707" lon="11.116934377111718"><ele>317.0</ele><time>2026-03-25T10:20:35Z</time></trkpt><trkpt lat="45.5201161325285" lon="11.116996688277382"><ele>317.0</ele><time>2026-03-25T10:20:36Z</time></trkpt><trkpt lat="45.520234563256054" lon="11.11710899660131"><ele>317.0</ele><time>2026-03-25T10:20:38Z</time></trkpt><trkpt lat="45.52029685224538" lon="11.117151251064806"><ele>317.0</ele><time>2026-03-25T10:20:39Z</time></trkpt><trkpt lat="45.52036078367431" lon="11.11720810038567"><ele>317.0</ele><time>2026-03-25T10:20:40Z</time></trkpt><trkpt lat="45.52043352491397" lon="11.117307934940722"><ele>317.0</ele><time>2026-03-25T10:20:42Z</time></trkpt><trkpt lat="45.52050609012037" lon="11.117328196294892"><ele>320.4</ele><time>2026-03-25T10:20:43Z</time></trkpt><trkpt lat="45.520630011109525" lon="11.117401322321744"><ele>323.79999999999995</ele><time>2026-03-25T10:20:45Z</time></trkpt><trkpt lat="45.52073755393172" lon="11.117477956056282"><ele>327.2</ele><time>2026-03-25T10:20:47Z</time></trkpt><trkpt lat="45.5208100378607" lon="11.11756164611923"><ele>330.59999999999997</ele><time>2026-03-25T10:20:49Z</time></trkpt><trkpt lat="45.52086051464395" lon="11.11763358202158"><ele>334.0</ele><time>2026-03-25T10:20:51Z</time></trkpt><trkpt lat="45.52089253482264" lon="11.117755426555203"><ele>329.0</ele><time>2026-03-25T10:20:54Z</time></trkpt><trkpt lat="45.5209520828598" lon="11.117801962065672"><ele>324.0</ele><time>2026-03-25T10:20:55Z</time></trkpt><trkpt lat="45.52100993284445" lon="11.117844053029671"><ele>319.0</ele><time>2026-03-25T10:20:56Z</time></trkpt><trkpt lat="45.521069897957666" lon="11.117872683312017"><ele>314.0</ele><time>2026-03-25T10:21:00Z</time></trkpt><trkpt lat="45.52113019678959" lon="11.11790621916358"><ele>309.0</ele><time>2026-03-25T10:21:08Z</time></trkpt><trkpt lat="45.521224151984384" lon="11.117932120518335"><ele>304.0</ele><time>2026-03-25T10:22:58Z</time></trkpt><trkpt lat="45.521263600678395" lon="11.11802786357026"><ele>299.0</ele><time>2026-03-25T10:23:36Z</time></trkpt><trkpt lat="45.52133042768354" lon="11.118093128581112"><ele>299.0</ele><time>2026-03-25T10:24:27.001Z</time></trkpt><trkpt lat="45.52136555858785" lon="11.118177225504052"><ele>299.0</ele><time>2026-03-25T10:24:49Z</time></trkpt><trkpt lat="45.52142862429703" lon="11.118191641119664"><ele>299.0</ele><time>2026-03-25T10:24:58Z</time></trkpt><trkpt lat="45.521492924841844" lon="11.118166800893965"><ele>299.0</ele><time>2026-03-25T10:25:01Z</time></trkpt><trkpt lat="45.52156521214253" lon="11.118132104711114"><ele>299.0</ele><time>2026-03-25T10:25:40.001Z</time></trkpt><trkpt lat="45.52169181816102" lon="11.118035920357512"><ele>299.0</ele><time>2026-03-25T10:26:09.001Z</time></trkpt><trkpt lat="45.52175372424793" lon="11.117982490887043"><ele>299.0</ele><time>2026-03-25T10:26:25.001Z</time></trkpt><trkpt lat="45.52181786431721" lon="11.117933087845048"><ele>299.0</ele><time>2026-03-25T10:26:29.001Z</time></trkpt><trkpt lat="45.52187475282299" lon="11.11788044118444"><ele>299.0</ele><time>2026-03-25T10:26:35.001Z</time></trkpt><trkpt lat="45.52193588332382" lon="11.11780558563121"><ele>299.0</ele><time>2026-03-25T10:26:43Z</time></trkpt><trkpt lat="45.52200413950127" lon="11.11779474680812"><ele>299.0</ele><time>2026-03-25T10:26:46Z</time></trkpt><trkpt lat="45.522074084542695" lon="11.117778064707688"><ele>299.0</ele><time>2026-03-25T10:26:49Z</time></trkpt><trkpt lat="45.522139987608284" lon="11.117772832194236"><ele>299.0</ele><time>2026-03-25T10:27:23Z</time></trkpt><trkpt lat="45.52220239686076" lon="11.117746374563797"><ele>298.8</ele><time>2026-03-25T10:27:30Z</time></trkpt><trkpt lat="45.52226036439708" lon="11.117706057554482"><ele>298.59999999999997</ele><time>2026-03-25T10:27:37Z</time></trkpt><trkpt lat="45.52235568000051" lon="11.1177104415607"><ele>298.4</ele><time>2026-03-25T10:27:42Z</time></trkpt><trkpt lat="45.522423535572884" lon="11.117743468115878"><ele>298.2</ele><time>2026-03-25T10:27:48.001Z</time></trkpt><trkpt lat="45.52248630392202" lon="11.117759415767988"><ele>298.0</ele><time>2026-03-25T10:27:50.001Z</time></trkpt><trkpt lat="45.52265720113826" lon="11.117798388324154"><ele>298.0</ele><time>2026-03-25T10:28:20.001Z</time></trkpt><trkpt lat="45.52267935783672" lon="11.117899548163338"><ele>298.0</ele><time>2026-03-25T10:29:02Z</time></trkpt><trkpt lat="45.522635034333746" lon="11.1179889626137"><ele>298.0</ele><time>2026-03-25T10:35:13.002Z</time></trkpt><trkpt lat="45.52266935945806" lon="11.118078068659171"><ele>298.0</ele><time>2026-03-25T10:38:59.001Z</time></trkpt><trkpt lat="45.52268804406084" lon="11.117985887004425"><ele>298.0</ele><time>2026-03-25T10:39:11.001Z</time></trkpt><trkpt lat="45.52264515424171" lon="11.117916234071272"><ele>298.0</ele><time>2026-03-25T10:40:06Z</time></trkpt><trkpt lat="45.52257999045303" lon="11.117923522794216"><ele>298.0</ele><time>2026-03-25T10:40:35Z</time></trkpt><trkpt lat="45.52250865228417" lon="11.117933855333279"><ele>298.0</ele><time>2026-03-25T10:40:44Z</time></trkpt><trkpt lat="45.522454632839185" lon="11.117876018990598"><ele>298.0</ele><time>2026-03-25T10:40:47Z</time></trkpt><trkpt lat="45.522352660751146" lon="11.117897667084067"><ele>298.0</ele><time>2026-03-25T10:41:29.999Z</time></trkpt><trkpt lat="45.52229607534784" lon="11.117958456781931"><ele>298.0</ele><time>2026-03-25T10:41:30.999Z</time></trkpt><trkpt lat="45.522281248688415" lon="11.117869871776788"><ele>298.0</ele><time>2026-03-25T10:42:13.999Z</time></trkpt><trkpt lat="45.522171944334815" lon="11.117854698171396"><ele>298.0</ele><time>2026-03-25T10:43:42.999Z</time></trkpt><trkpt lat="45.522141980391055" lon="11.117726653373872"><ele>298.0</ele><time>2026-03-25T10:46:58Z</time></trkpt><trkpt lat="45.5221885342007" lon="11.117874527676129"><ele>298.0</ele><time>2026-03-25T10:49:49.999Z</time></trkpt><trkpt lat="45.52212532912743" lon="11.117862152366921"><ele>298.0</ele><time>2026-03-25T10:50:26Z</time></trkpt><trkpt lat="45.5220472322985" lon="11.117875132892467"><ele>298.0</ele><time>2026-03-25T10:50:48Z</time></trkpt><trkpt lat="45.521984595235736" lon="11.117884511582432"><ele>298.0</ele><time>2026-03-25T10:50:53Z</time></trkpt><trkpt lat="45.52181334458176" lon="11.117993609052453"><ele>298.1428571428571</ele><time>2026-03-25T10:55:38.002Z</time></trkpt><trkpt lat="45.521767691485614" lon="11.118066150676846"><ele>298.2857142857143</ele><time>2026-03-25T10:55:43.002Z</time></trkpt><trkpt lat="45.521693884719234" lon="11.118108263832235"><ele>298.42857142857144</ele><time>2026-03-25T10:56:06.001Z</time></trkpt><trkpt lat="45.52162124187789" lon="11.118117808522216"><ele>298.57142857142856</ele><time>2026-03-25T10:56:52.001Z</time></trkpt><trkpt lat="45.521560648992235" lon="11.118157599927573"><ele>298.7142857142857</ele><time>2026-03-25T10:56:59.001Z</time></trkpt><trkpt lat="45.5215628565857" lon="11.118250196198275"><ele>298.85714285714283</ele><time>2026-03-25T10:57:23.001Z</time></trkpt><trkpt lat="45.52159565848678" lon="11.118375039509429"><ele>299.0</ele><time>2026-03-25T10:57:52.001Z</time></trkpt><trkpt lat="45.521540845276476" lon="11.118421495079547"><ele>296.6666666666667</ele><time>2026-03-25T11:00:07.001Z</time></trkpt><trkpt lat="45.521421112711295" lon="11.118460682566399"><ele>294.33333333333337</ele><time>2026-03-25T11:01:12Z</time></trkpt><trkpt lat="45.521346991934514" lon="11.118443397385363"><ele>292.0</ele><time>2026-03-25T11:10:49Z</time></trkpt><trkpt lat="45.521282037576434" lon="11.118428487391451"><ele>289.6666666666667</ele><time>2026-03-25T11:10:58Z</time></trkpt><trkpt lat="45.52122479947647" lon="11.118371151481"><ele>287.3333333333333</ele><time>2026-03-25T11:11:16Z</time></trkpt><trkpt lat="45.52114696564401" lon="11.11839924515551"><ele>285.0</ele><time>2026-03-25T11:11:37Z</time></trkpt><trkpt lat="45.52107267601764" lon="11.118367136790459"><ele>284.3333333333333</ele><time>2026-03-25T11:11:40Z</time></trkpt><trkpt lat="45.52102222958929" lon="11.118282124173835"><ele>283.6666666666667</ele><time>2026-03-25T11:11:50Z</time></trkpt><trkpt lat="45.52097515594856" lon="11.118216743958316"><ele>283.0</ele><time>2026-03-25T11:11:55Z</time></trkpt><trkpt lat="45.520904071428056" lon="11.118229750625488"><ele>282.33333333333337</ele><time>2026-03-25T11:12:06Z</time></trkpt><trkpt lat="45.52099885244369" lon="11.11824749104309"><ele>281.6666666666667</ele><time>2026-03-25T11:14:39Z</time></trkpt><trkpt lat="45.52107223668937" lon="11.118273584774238"><ele>281.0</ele><time>2026-03-25T11:14:43Z</time></trkpt><trkpt lat="45.52116765474053" lon="11.11830658435717"><ele>282.0</ele><time>2026-03-25T11:14:49Z</time></trkpt><trkpt lat="45.52124108515277" lon="11.11831588985089"><ele>283.0</ele><time>2026-03-25T11:14:53Z</time></trkpt><trkpt lat="45.521400186344295" lon="11.118273732326085"><ele>284.0</ele><time>2026-03-25T11:15:30Z</time></trkpt><trkpt lat="45.52154578472689" lon="11.118288111400418"><ele>285.0</ele><time>2026-03-25T11:16:40Z</time></trkpt><trkpt lat="45.52150828541035" lon="11.118102636944384"><ele>285.0</ele><time>2026-03-25T11:21:12.001Z</time></trkpt><trkpt lat="45.52157297688737" lon="11.118151726714444"><ele>285.0</ele><time>2026-03-25T11:21:47.001Z</time></trkpt><trkpt lat="45.52171376398079" lon="11.117982788331755"><ele>285.0</ele><time>2026-03-25T11:22:27.001Z</time></trkpt><trkpt lat="45.52169804307076" lon="11.118075310146285"><ele>285.0</ele><time>2026-03-25T11:25:04.001Z</time></trkpt><trkpt lat="45.52161289751165" lon="11.118155050635261"><ele>285.0</ele><time>2026-03-25T11:25:27.001Z</time></trkpt><trkpt lat="45.52163709422237" lon="11.11823942570033"><ele>285.0</ele><time>2026-03-25T11:29:33Z</time></trkpt><trkpt lat="45.5215742361889" lon="11.118284805528479"><ele>285.0</ele><time>2026-03-25T11:29:36Z</time></trkpt><trkpt lat="45.521478219576494" lon="11.11824780554316"><ele>285.0</ele><time>2026-03-25T11:29:56Z</time></trkpt><trkpt lat="45.521415131501" lon="11.118238012301184"><ele>285.0</ele><time>2026-03-25T11:34:33Z</time></trkpt><trkpt lat="45.5213458692641" lon="11.11825698564838"><ele>285.0</ele><time>2026-03-25T11:34:44Z</time></trkpt><trkpt lat="45.52128147643771" lon="11.118225814733542"><ele>285.0</ele><time>2026-03-25T11:35:13Z</time></trkpt><trkpt lat="45.521248302926416" lon="11.118132680736045"><ele>285.0</ele><time>2026-03-25T11:35:50Z</time></trkpt><trkpt lat="45.521241522658364" lon="11.118032377406744"><ele>287.3333333333333</ele><time>2026-03-25T11:35:57Z</time></trkpt><trkpt lat="45.52129555002523" lon="11.117960264869762"><ele>289.6666666666667</ele><time>2026-03-25T11:36:17Z</time></trkpt><trkpt lat="45.52137834203602" lon="11.117932880519605"><ele>292.0</ele><time>2026-03-25T11:41:49.999Z</time></trkpt><trkpt lat="45.52148634277693" lon="11.117884620799016"><ele>294.33333333333337</ele><time>2026-03-25T11:41:53.999Z</time></trkpt><trkpt lat="45.521543459357005" lon="11.117834542214998"><ele>296.6666666666667</ele><time>2026-03-25T11:41:55.999Z</time></trkpt><trkpt lat="45.52159980826304" lon="11.117778901242836"><ele>299.0</ele><time>2026-03-25T11:41:58.999Z</time></trkpt><trkpt lat="45.52163830062367" lon="11.1177046129651"><ele>299.0</ele><time>2026-03-25T11:42:04.999Z</time></trkpt><trkpt lat="45.521680767141746" lon="11.117621384760021"><ele>299.0</ele><time>2026-03-25T11:42:08.999Z</time></trkpt><trkpt lat="45.52172692131982" lon="11.117548422078245"><ele>299.0</ele><time>2026-03-25T11:42:14Z</time></trkpt><trkpt lat="45.52177466663053" lon="11.11747685047274"><ele>299.0</ele><time>2026-03-25T11:42:24Z</time></trkpt><trkpt lat="45.52185466541253" lon="11.117410684378472"><ele>299.0</ele><time>2026-03-25T11:43:30.999Z</time></trkpt><trkpt lat="45.52199915317547" lon="11.11739563650946"><ele>299.0</ele><time>2026-03-25T11:43:40.999Z</time></trkpt><trkpt lat="45.52206233238096" lon="11.117366336705613"><ele>305.33333333333337</ele><time>2026-03-25T11:43:49.999Z</time></trkpt><trkpt lat="45.52214853912002" lon="11.117324313734308"><ele>311.6666666666667</ele><time>2026-03-25T11:44:13.999Z</time></trkpt><trkpt lat="45.52221864242872" lon="11.117304658174863"><ele>318.0</ele><time>2026-03-25T11:44:16.999Z</time></trkpt><trkpt lat="45.52228323404347" lon="11.117292678877867"><ele>324.3333333333333</ele><time>2026-03-25T11:44:20.999Z</time></trkpt><trkpt lat="45.522358837136146" lon="11.117285922702774"><ele>330.66666666666663</ele><time>2026-03-25T11:44:24.999Z</time></trkpt><trkpt lat="45.522428120624085" lon="11.117292619342294"><ele>337.0</ele><time>2026-03-25T11:44:29.999Z</time></trkpt><trkpt lat="45.52251370119198" lon="11.117287926028888"><ele>337.0</ele><time>2026-03-25T11:44:33.999Z</time></trkpt><trkpt lat="45.52258896753963" lon="11.117276488397449"><ele>337.0</ele><time>2026-03-25T11:45:55.999Z</time></trkpt><trkpt lat="45.52264472080447" lon="11.117231484537372"><ele>337.0</ele><time>2026-03-25T11:46:10.999Z</time></trkpt><trkpt lat="45.522714088927835" lon="11.117195673672718"><ele>337.0</ele><time>2026-03-25T11:46:46.999Z</time></trkpt><trkpt lat="45.5228465887302" lon="11.117145069241824"><ele>337.0</ele><time>2026-03-25T11:48:20.999Z</time></trkpt><trkpt lat="45.522972146714565" lon="11.11715913093581"><ele>337.0</ele><time>2026-03-25T11:49:36.999Z</time></trkpt><trkpt lat="45.523047433184566" lon="11.11717887369837"><ele>337.0</ele><time>2026-03-25T11:49:38.999Z</time></trkpt><trkpt lat="45.523194550033644" lon="11.117173857177903"><ele>337.0</ele><time>2026-03-25T11:49:47.999Z</time></trkpt><trkpt lat="45.523281400428495" lon="11.117143576436598"><ele>337.0</ele><time>2026-03-25T11:49:51.999Z</time></trkpt><trkpt lat="45.523346182974194" lon="11.117100775372254"><ele>337.0</ele><time>2026-03-25T11:49:53.999Z</time></trkpt><trkpt lat="45.52343219859172" lon="11.11704543906642"><ele>337.0</ele><time>2026-03-25T11:49:55.999Z</time></trkpt><trkpt lat="45.52357180997925" lon="11.117037538084254"><ele>337.0</ele><time>2026-03-25T11:50:01.999Z</time></trkpt><trkpt lat="45.52364886091973" lon="11.116988820835298"><ele>337.0</ele><time>2026-03-25T11:50:05.999Z</time></trkpt><trkpt lat="45.523710267862704" lon="11.116940136848868"><ele>337.0</ele><time>2026-03-25T11:50:10.999Z</time></trkpt><trkpt lat="45.52377844540296" lon="11.116918190699304"><ele>337.0</ele><time>2026-03-25T11:50:15.999Z</time></trkpt><trkpt lat="45.52384767499676" lon="11.116863793781718"><ele>337.0</ele><time>2026-03-25T11:50:20.999Z</time></trkpt><trkpt lat="45.52391258770873" lon="11.116813077155332"><ele>334.28571428571433</ele><time>2026-03-25T11:50:28.999Z</time></trkpt><trkpt lat="45.523974956556" lon="11.116760704636507"><ele>331.57142857142856</ele><time>2026-03-25T11:50:36.999Z</time></trkpt><trkpt lat="45.52402795892024" lon="11.116704282905769"><ele>328.8571428571429</ele><time>2026-03-25T11:50:41.999Z</time></trkpt><trkpt lat="45.52409098113591" lon="11.11668006503425"><ele>326.14285714285717</ele><time>2026-03-25T11:50:50.999Z</time></trkpt><trkpt lat="45.5241548356679" lon="11.11666827621679"><ele>323.42857142857144</ele><time>2026-03-25T11:50:59.999Z</time></trkpt><trkpt lat="45.524202716349926" lon="11.116550025303644"><ele>320.7142857142857</ele><time>2026-03-25T11:51:02.999Z</time></trkpt><trkpt lat="45.524264918085706" lon="11.116485848328072"><ele>318.0</ele><time>2026-03-25T11:51:07.999Z</time></trkpt><trkpt lat="45.52431469095088" lon="11.116418888418753"><ele>324.5</ele><time>2026-03-25T11:51:10.999Z</time></trkpt><trkpt lat="45.52435306042824" lon="11.116329510245908"><ele>331.0</ele><time>2026-03-25T11:51:13Z</time></trkpt><trkpt lat="45.52439859051817" lon="11.11625533167101"><ele>337.5</ele><time>2026-03-25T11:51:15Z</time></trkpt><trkpt lat="45.5244256003878" lon="11.116156546859402"><ele>344.0</ele><time>2026-03-25T11:51:23Z</time></trkpt><trkpt lat="45.5244311245919" lon="11.116002710187516"><ele>350.5</ele><time>2026-03-25T11:51:48Z</time></trkpt><trkpt lat="45.52436701495293" lon="11.115948936530861"><ele>357.0</ele><time>2026-03-25T11:52:17Z</time></trkpt><trkpt lat="45.52442375394429" lon="11.115836507770867"><ele>357.0</ele><time>2026-03-25T11:52:54.999Z</time></trkpt><trkpt lat="45.524470933473424" lon="11.11573809026707"><ele>357.0</ele><time>2026-03-25T11:52:56.999Z</time></trkpt><trkpt lat="45.524508078036895" lon="11.115623877130453"><ele>357.0</ele><time>2026-03-25T11:52:59.999Z</time></trkpt><trkpt lat="45.524530672387954" lon="11.115497414401835"><ele>357.0</ele><time>2026-03-25T11:53:03.999Z</time></trkpt><trkpt lat="45.52458431626797" lon="11.115411938742582"><ele>357.0</ele><time>2026-03-25T11:53:05.999Z</time></trkpt><trkpt lat="45.524606929888286" lon="11.115311846581173"><ele>357.0</ele><time>2026-03-25T11:53:08.999Z</time></trkpt><trkpt lat="45.52462098064849" lon="11.11518067762326"><ele>357.0</ele><time>2026-03-25T11:53:11.999Z</time></trkpt><trkpt lat="45.52463832755167" lon="11.11504794923485"><ele>357.0</ele><time>2026-03-25T11:53:14.999Z</time></trkpt><trkpt lat="45.524708624843306" lon="11.114981469383448"><ele>357.0</ele><time>2026-03-25T11:53:16.999Z</time></trkpt><trkpt lat="45.524762686994094" lon="11.1149305203177"><ele>357.0</ele><time>2026-03-25T11:53:19.999Z</time></trkpt><trkpt lat="45.52481682288751" lon="11.114845758972614"><ele>357.0</ele><time>2026-03-25T11:53:28Z</time></trkpt><trkpt lat="45.524865684505244" lon="11.11477437372203"><ele>357.0</ele><time>2026-03-25T11:53:32Z</time></trkpt><trkpt lat="45.5248554288392" lon="11.114683851908024"><ele>361.0</ele><time>2026-03-25T11:53:38Z</time></trkpt><trkpt lat="45.524790269691884" lon="11.11469367784594"><ele>365.0</ele><time>2026-03-25T11:53:40Z</time></trkpt><trkpt lat="45.52476016677382" lon="11.114579162059126"><ele>369.0</ele><time>2026-03-25T11:53:43Z</time></trkpt><trkpt lat="45.52470231761516" lon="11.114500580886476"><ele>373.0</ele><time>2026-03-25T11:56:55.001Z</time></trkpt><trkpt lat="45.52464305260676" lon="11.114447731257762"><ele>377.0</ele><time>2026-03-25T11:56:57.001Z</time></trkpt><trkpt lat="45.5245563463229" lon="11.114384328412386"><ele>381.0</ele><time>2026-03-25T11:56:59.001Z</time></trkpt><trkpt lat="45.52447480397428" lon="11.114292878760509"><ele>382.5</ele><time>2026-03-25T11:57:01.001Z</time></trkpt><trkpt lat="45.52440134506729" lon="11.114272051007958"><ele>384.0</ele><time>2026-03-25T11:57:02.001Z</time></trkpt><trkpt lat="45.52432031553734" lon="11.11428287354536"><ele>385.5</ele><time>2026-03-25T11:57:03.001Z</time></trkpt><trkpt lat="45.52424763759329" lon="11.114335311895584"><ele>387.0</ele><time>2026-03-25T11:57:04.001Z</time></trkpt><trkpt lat="45.52418353114058" lon="11.114411062431696"><ele>388.5</ele><time>2026-03-25T11:57:05.001Z</time></trkpt><trkpt lat="45.52407021271876" lon="11.114467097417275"><ele>390.0</ele><time>2026-03-25T11:57:07.001Z</time></trkpt><trkpt lat="45.52397833913053" lon="11.11442202854318"><ele>390.0</ele><time>2026-03-25T11:57:09.001Z</time></trkpt><trkpt lat="45.52391627897145" lon="11.11436646209597"><ele>390.0</ele><time>2026-03-25T11:57:10.001Z</time></trkpt><trkpt lat="45.52381851350181" lon="11.114283297935609"><ele>390.0</ele><time>2026-03-25T11:57:12.001Z</time></trkpt><trkpt lat="45.5237357646299" lon="11.114296903199364"><ele>390.0</ele><time>2026-03-25T11:57:13.001Z</time></trkpt><trkpt lat="45.52362817653511" lon="11.114302243785511"><ele>390.0</ele><time>2026-03-25T11:57:14.001Z</time></trkpt><trkpt lat="45.523505923515316" lon="11.11426509503106"><ele>390.4</ele><time>2026-03-25T11:57:15.001Z</time></trkpt><trkpt lat="45.523396781276105" lon="11.114230897579514"><ele>390.8</ele><time>2026-03-25T11:57:16.001Z</time></trkpt><trkpt lat="45.52330254706938" lon="11.114183561018343"><ele>391.20000000000005</ele><time>2026-03-25T11:57:17.001Z</time></trkpt><trkpt lat="45.52321379541385" lon="11.114133270225926"><ele>391.6</ele><time>2026-03-25T11:57:18.001Z</time></trkpt><trkpt lat="45.52311419969538" lon="11.114080669502476"><ele>392.0</ele><time>2026-03-25T11:57:19.001Z</time></trkpt><trkpt lat="45.52303553697833" lon="11.114020562192739"><ele>391.99999999999994</ele><time>2026-03-25T11:57:20.001Z</time></trkpt><trkpt lat="45.52297521425349" lon="11.113957415662753"><ele>392.0</ele><time>2026-03-25T11:57:21.001Z</time></trkpt><trkpt lat="45.52289969328457" lon="11.11389409728661"><ele>392.0</ele><time>2026-03-25T11:57:23.001Z</time></trkpt><trkpt lat="45.52283586158948" lon="11.113974806073408"><ele>392.0</ele><time>2026-03-25T11:57:25.001Z</time></trkpt><trkpt lat="45.5228232209326" lon="11.114071183276748"><ele>391.99999999999994</ele><time>2026-03-25T11:57:26.001Z</time></trkpt><trkpt lat="45.52284303744207" lon="11.114190941858327"><ele>392.0</ele><time>2026-03-25T11:57:27.001Z</time></trkpt><trkpt lat="45.522898746126245" lon="11.11432443425633"><ele>392.0</ele><time>2026-03-25T11:57:28.001Z</time></trkpt><trkpt lat="45.52297357859898" lon="11.114475213142713"><ele>392.0</ele><time>2026-03-25T11:57:29.001Z</time></trkpt><trkpt lat="45.52301651378308" lon="11.114617519780362"><ele>392.0</ele><time>2026-03-25T11:57:30.001Z</time></trkpt><trkpt lat="45.52303474191042" lon="11.114735203640247"><ele>392.0</ele><time>2026-03-25T11:57:31.001Z</time></trkpt><trkpt lat="45.52303040804091" lon="11.114840309755948"><ele>392.0</ele><time>2026-03-25T11:57:32.001Z</time></trkpt><trkpt lat="45.523002519807946" lon="11.114945400778424"><ele>392.49999999999994</ele><time>2026-03-25T11:57:33.001Z</time></trkpt><trkpt lat="45.522952077802806" lon="11.115038115205364"><ele>393.0</ele><time>2026-03-25T11:57:34.001Z</time></trkpt><trkpt lat="45.52289011862463" lon="11.115119318051441"><ele>393.5</ele><time>2026-03-25T11:57:35.001Z</time></trkpt><trkpt lat="45.522812184630084" lon="11.115168292521016"><ele>394.0</ele><time>2026-03-25T11:57:36.001Z</time></trkpt><trkpt lat="45.52272015377225" lon="11.115198692318295"><ele>394.49999999999994</ele><time>2026-03-25T11:57:37.001Z</time></trkpt><trkpt lat="45.52262817239998" lon="11.11519476493867"><ele>395.0</ele><time>2026-03-25T11:57:38.001Z</time></trkpt><trkpt lat="45.52253884340276" lon="11.115182085449629"><ele>395.0</ele><time>2026-03-25T11:57:39.001Z</time></trkpt><trkpt lat="45.52243923204367" lon="11.115160318195267"><ele>395.0</ele><time>2026-03-25T11:57:40.001Z</time></trkpt><trkpt lat="45.52233430973382" lon="11.115125730277786"><ele>395.0</ele><time>2026-03-25T11:57:41.001Z</time></trkpt><trkpt lat="45.52221686992471" lon="11.115069662386007"><ele>395.0</ele><time>2026-03-25T11:57:42.001Z</time></trkpt><trkpt lat="45.522109059111656" lon="11.115008785882877"><ele>395.0</ele><time>2026-03-25T11:57:43.001Z</time></trkpt><trkpt lat="45.522015560985395" lon="11.114958651523214"><ele>395.2</ele><time>2026-03-25T11:57:44.001Z</time></trkpt><trkpt lat="45.52191671832098" lon="11.11492109698972"><ele>395.4</ele><time>2026-03-25T11:57:45.001Z</time></trkpt><trkpt lat="45.5218148697691" lon="11.114908649040567"><ele>395.6</ele><time>2026-03-25T11:57:46.001Z</time></trkpt><trkpt lat="45.52171339264434" lon="11.114922863550296"><ele>395.8</ele><time>2026-03-25T11:57:47.001Z</time></trkpt><trkpt lat="45.52159613945788" lon="11.114962957175555"><ele>396.0</ele><time>2026-03-25T11:57:48.001Z</time></trkpt><trkpt lat="45.52146697691199" lon="11.115009970580218"><ele>396.0</ele><time>2026-03-25T11:57:49.001Z</time></trkpt><trkpt lat="45.52134561490528" lon="11.115056885578664"><ele>396.0</ele><time>2026-03-25T11:57:50.001Z</time></trkpt><trkpt lat="45.52125189233908" lon="11.115093930684933"><ele>396.0</ele><time>2026-03-25T11:57:51.001Z</time></trkpt><trkpt lat="45.52116015378402" lon="11.115122014587511"><ele>396.0</ele><time>2026-03-25T11:57:52.001Z</time></trkpt><trkpt lat="45.52106968263307" lon="11.115134245449408"><ele>396.0</ele><time>2026-03-25T11:57:53.001Z</time></trkpt><trkpt lat="45.52098759785317" lon="11.115124003491907"><ele>395.8</ele><time>2026-03-25T11:57:54.001Z</time></trkpt><trkpt lat="45.520898819708044" lon="11.115097018642361"><ele>395.6</ele><time>2026-03-25T11:57:55.001Z</time></trkpt><trkpt lat="45.520785486681355" lon="11.11504797724316"><ele>395.4</ele><time>2026-03-25T11:57:56.001Z</time></trkpt><trkpt lat="45.52068121533614" lon="11.11498191445414"><ele>395.2</ele><time>2026-03-25T11:57:57.001Z</time></trkpt><trkpt lat="45.52059136573885" lon="11.114886560550778"><ele>395.0</ele><time>2026-03-25T11:57:58.001Z</time></trkpt><trkpt lat="45.520486656136335" lon="11.114781673466085"><ele>397.2</ele><time>2026-03-25T11:57:59.001Z</time></trkpt><trkpt lat="45.52038126619215" lon="11.114699318475171"><ele>399.4</ele><time>2026-03-25T11:58:00.001Z</time></trkpt><trkpt lat="45.52027743448533" lon="11.114661660762668"><ele>401.6</ele><time>2026-03-25T11:58:01.001Z</time></trkpt><trkpt lat="45.520170079166114" lon="11.11465958238956"><ele>403.8</ele><time>2026-03-25T11:58:02.001Z</time></trkpt><trkpt lat="45.52005690286731" lon="11.114677721398612"><ele>406.0</ele><time>2026-03-25T11:58:03.001Z</time></trkpt><trkpt lat="45.51995676595861" lon="11.114725035486913"><ele>406.0</ele><time>2026-03-25T11:58:04.001Z</time></trkpt><trkpt lat="45.5198623011334" lon="11.114776567230424"><ele>406.0</ele><time>2026-03-25T11:58:05.001Z</time></trkpt><trkpt lat="45.519770642260724" lon="11.114799970931614"><ele>406.0</ele><time>2026-03-25T11:58:06.001Z</time></trkpt><trkpt lat="45.51967538395853" lon="11.114801693302754"><ele>406.0</ele><time>2026-03-25T11:58:07.001Z</time></trkpt><trkpt lat="45.51957020124272" lon="11.114783700451593"><ele>406.0</ele><time>2026-03-25T11:58:08.001Z</time></trkpt><trkpt lat="45.51945243290312" lon="11.114745798445245"><ele>403.75</ele><time>2026-03-25T11:58:09.001Z</time></trkpt><trkpt lat="45.51933628398348" lon="11.114695466648122"><ele>401.5</ele><time>2026-03-25T11:58:10.001Z</time></trkpt><trkpt lat="45.519223267676374" lon="11.114652339535914"><ele>399.25</ele><time>2026-03-25T11:58:11.001Z</time></trkpt><trkpt lat="45.51911676098699" lon="11.11461578039251"><ele>397.0</ele><time>2026-03-25T11:58:12.001Z</time></trkpt><trkpt lat="45.51900700681763" lon="11.114571080477363"><ele>397.0</ele><time>2026-03-25T11:58:13.001Z</time></trkpt><trkpt lat="45.51889739999513" lon="11.114505865458813"><ele>397.0</ele><time>2026-03-25T11:58:14.001Z</time></trkpt><trkpt lat="45.5188020121299" lon="11.114423406385534"><ele>397.0</ele><time>2026-03-25T11:58:15.001Z</time></trkpt><trkpt lat="45.51873302998083" lon="11.114346582649498"><ele>397.0</ele><time>2026-03-25T11:58:16.001Z</time></trkpt><trkpt lat="45.51868789074605" lon="11.114264054057843"><ele>397.0</ele><time>2026-03-25T11:58:17.001Z</time></trkpt><trkpt lat="45.518662675090894" lon="11.114157647768744"><ele>397.0</ele><time>2026-03-25T11:58:18.001Z</time></trkpt><trkpt lat="45.5186644448452" lon="11.114029464007391"><ele>397.0</ele><time>2026-03-25T11:58:19.001Z</time></trkpt><trkpt lat="45.51867509311043" lon="11.113884355191116"><ele>397.0</ele><time>2026-03-25T11:58:20.001Z</time></trkpt><trkpt lat="45.518698367326486" lon="11.113736771580815"><ele>397.0</ele><time>2026-03-25T11:58:21.001Z</time></trkpt><trkpt lat="45.518741803814684" lon="11.11357950340364"><ele>397.0</ele><time>2026-03-25T11:58:22.001Z</time></trkpt><trkpt lat="45.51879532100301" lon="11.113419765225204"><ele>397.0</ele><time>2026-03-25T11:58:23.001Z</time></trkpt><trkpt lat="45.518853447441984" lon="11.113259294198349"><ele>397.0</ele><time>2026-03-25T11:58:24.001Z</time></trkpt><trkpt lat="45.518897729273974" lon="11.113090921609404"><ele>397.0</ele><time>2026-03-25T11:58:25.001Z</time></trkpt><trkpt lat="45.518927994446685" lon="11.112907234953548"><ele>397.0</ele><time>2026-03-25T11:58:26.001Z</time></trkpt><trkpt lat="45.51894555773565" lon="11.112735471209225"><ele>396.20000000000005</ele><time>2026-03-25T11:58:27.001Z</time></trkpt><trkpt lat="45.518960711210944" lon="11.112586353237187"><ele>395.4</ele><time>2026-03-25T11:58:28.001Z</time></trkpt><trkpt lat="45.518973756925504" lon="11.112436143695595"><ele>394.6</ele><time>2026-03-25T11:58:29.001Z</time></trkpt><trkpt lat="45.51898016312272" lon="11.112280254683672"><ele>393.79999999999995</ele><time>2026-03-25T11:58:30.001Z</time></trkpt><trkpt lat="45.51898652691381" lon="11.112149581952742"><ele>393.0</ele><time>2026-03-25T11:58:31.001Z</time></trkpt><trkpt lat="45.518987170378814" lon="11.112029629087463"><ele>393.0</ele><time>2026-03-25T11:58:32.001Z</time></trkpt><trkpt lat="45.51892324303969" lon="11.111924618458659"><ele>393.0</ele><time>2026-03-25T11:58:34.001Z</time></trkpt><trkpt lat="45.5188216794764" lon="11.1119935467471"><ele>393.0</ele><time>2026-03-25T11:58:36.001Z</time></trkpt><trkpt lat="45.51876844650799" lon="11.112108458219923"><ele>393.0</ele><time>2026-03-25T11:58:37.001Z</time></trkpt><trkpt lat="45.518694313828334" lon="11.11215329731252"><ele>393.0</ele><time>2026-03-25T11:58:38.001Z</time></trkpt><trkpt lat="45.518600265217174" lon="11.112191171581973"><ele>394.0</ele><time>2026-03-25T11:58:39.001Z</time></trkpt><trkpt lat="45.518484934539565" lon="11.112193313786642"><ele>395.0</ele><time>2026-03-25T11:58:40.001Z</time></trkpt><trkpt lat="45.51836307175045" lon="11.112183011628657"><ele>396.0</ele><time>2026-03-25T11:58:41.001Z</time></trkpt><trkpt lat="45.51823924896883" lon="11.112172842311054"><ele>397.0</ele><time>2026-03-25T11:58:42.001Z</time></trkpt><trkpt lat="45.51810403669088" lon="11.112155190549267"><ele>397.0</ele><time>2026-03-25T11:58:43.001Z</time></trkpt><trkpt lat="45.51795763396181" lon="11.112127955536971"><ele>397.0</ele><time>2026-03-25T11:58:44.001Z</time></trkpt><trkpt lat="45.51780856864514" lon="11.112095775637936"><ele>397.0</ele><time>2026-03-25T11:58:45.001Z</time></trkpt><trkpt lat="45.51766644336726" lon="11.112063998711664"><ele>397.0</ele><time>2026-03-25T11:58:46.001Z</time></trkpt><trkpt lat="45.517555202867946" lon="11.112019518305056"><ele>397.0</ele><time>2026-03-25T11:58:47.001Z</time></trkpt><trkpt lat="45.517458840842636" lon="11.111956505820613"><ele>397.0</ele><time>2026-03-25T11:58:48.001Z</time></trkpt><trkpt lat="45.517359278772844" lon="11.111865123935264"><ele>397.0</ele><time>2026-03-25T11:58:49.001Z</time></trkpt><trkpt lat="45.51726425132281" lon="11.111781115219244"><ele>397.0</ele><time>2026-03-25T11:58:50.001Z</time></trkpt><trkpt lat="45.51717306706044" lon="11.111683072658991"><ele>399.8</ele><time>2026-03-25T11:58:51.001Z</time></trkpt><trkpt lat="45.51709418409648" lon="11.111547772084629"><ele>402.6</ele><time>2026-03-25T11:58:52.001Z</time></trkpt><trkpt lat="45.517021325795874" lon="11.111432467283493"><ele>405.40000000000003</ele><time>2026-03-25T11:58:53.001Z</time></trkpt><trkpt lat="45.516947854783666" lon="11.111346071430917"><ele>408.20000000000005</ele><time>2026-03-25T11:58:54.001Z</time></trkpt><trkpt lat="45.516859253293596" lon="11.111305109179712"><ele>411.0</ele><time>2026-03-25T11:58:55.001Z</time></trkpt><trkpt lat="45.51675301512948" lon="11.111302182550027"><ele>411.0</ele><time>2026-03-25T11:58:56.001Z</time></trkpt><trkpt lat="45.51664315312285" lon="11.111341547450321"><ele>411.0</ele><time>2026-03-25T11:58:57.001Z</time></trkpt><trkpt lat="45.51653803047006" lon="11.111380605721944"><ele>411.0</ele><time>2026-03-25T11:58:58.001Z</time></trkpt><trkpt lat="45.51642919385187" lon="11.111435799839176"><ele>411.0</ele><time>2026-03-25T11:58:59.001Z</time></trkpt><trkpt lat="45.516316227564346" lon="11.1114892306821"><ele>411.3333333333333</ele><time>2026-03-25T11:59:00.001Z</time></trkpt><trkpt lat="45.51622081480271" lon="11.111537553034767"><ele>411.66666666666663</ele><time>2026-03-25T11:59:01.002Z</time></trkpt><trkpt lat="45.516158789527786" lon="11.111564087518135"><ele>412.0</ele><time>2026-03-25T11:59:02.002Z</time></trkpt><trkpt lat="45.51607481780443" lon="11.111543842001462"><ele>412.3333333333333</ele><time>2026-03-25T11:59:04.001Z</time></trkpt><trkpt lat="45.51609443405816" lon="11.111405509487218"><ele>412.66666666666663</ele><time>2026-03-25T11:59:06.001Z</time></trkpt><trkpt lat="45.516143089936314" lon="11.111339033114339"><ele>413.0</ele><time>2026-03-25T11:59:07.001Z</time></trkpt><trkpt lat="45.5161885607676" lon="11.111274438604076"><ele>412.59999999999997</ele><time>2026-03-25T11:59:08.001Z</time></trkpt><trkpt lat="45.5162419663079" lon="11.1111831374499"><ele>412.2</ele><time>2026-03-25T11:59:09.001Z</time></trkpt><trkpt lat="45.51627308090562" lon="11.111074868358127"><ele>411.8</ele><time>2026-03-25T11:59:10.001Z</time></trkpt><trkpt lat="45.51628959067488" lon="11.110945093459483"><ele>411.4</ele><time>2026-03-25T11:59:11.001Z</time></trkpt><trkpt lat="45.516293921455684" lon="11.110793425863863"><ele>411.0</ele><time>2026-03-25T11:59:12.001Z</time></trkpt><trkpt lat="45.51628100532577" lon="11.110658309480478"><ele>411.6</ele><time>2026-03-25T11:59:13.001Z</time></trkpt><trkpt lat="45.516241121940084" lon="11.110541774497351"><ele>412.20000000000005</ele><time>2026-03-25T11:59:14.001Z</time></trkpt><trkpt lat="45.51618761658133" lon="11.110419187344101"><ele>412.79999999999995</ele><time>2026-03-25T11:59:15.001Z</time></trkpt><trkpt lat="45.51613992366057" lon="11.110297389509695"><ele>413.4</ele><time>2026-03-25T11:59:16.001Z</time></trkpt><trkpt lat="45.51611255147499" lon="11.110170957012052"><ele>414.0</ele><time>2026-03-25T11:59:17.001Z</time></trkpt><trkpt lat="45.5161048802768" lon="11.11003913201886"><ele>415.0</ele><time>2026-03-25T11:59:18.001Z</time></trkpt><trkpt lat="45.51611156572421" lon="11.109862547869449"><ele>416.0</ele><time>2026-03-25T11:59:19.001Z</time></trkpt><trkpt lat="45.51610464329787" lon="11.109676770946773"><ele>417.0</ele><time>2026-03-25T11:59:20.001Z</time></trkpt><trkpt lat="45.516082839354965" lon="11.109473456185011"><ele>418.0</ele><time>2026-03-25T11:59:21.001Z</time></trkpt><trkpt lat="45.51606601777645" lon="11.10928330912523"><ele>418.00000000000006</ele><time>2026-03-25T11:59:22.001Z</time></trkpt><trkpt lat="45.51606428039822" lon="11.109147507120262"><ele>418.0</ele><time>2026-03-25T11:59:23.001Z</time></trkpt><trkpt lat="45.51607525248006" lon="11.109036015335247"><ele>418.0</ele><time>2026-03-25T11:59:24.001Z</time></trkpt><trkpt lat="45.51611020548433" lon="11.10894413962644"><ele>418.0</ele><time>2026-03-25T11:59:25.001Z</time></trkpt><trkpt lat="45.516175971738164" lon="11.108859801573823"><ele>418.00000000000006</ele><time>2026-03-25T11:59:26.001Z</time></trkpt><trkpt lat="45.51624767026082" lon="11.108757632589334"><ele>418.0</ele><time>2026-03-25T11:59:27.001Z</time></trkpt><trkpt lat="45.51633089557434" lon="11.108634751556076"><ele>419.50000000000006</ele><time>2026-03-25T11:59:28.001Z</time></trkpt><trkpt lat="45.51642774527459" lon="11.108533312915307"><ele>421.0</ele><time>2026-03-25T11:59:29.001Z</time></trkpt><trkpt lat="45.51649873058297" lon="11.10846860894169"><ele>422.5</ele><time>2026-03-25T11:59:30.001Z</time></trkpt><trkpt lat="45.516554571635325" lon="11.10840131244897"><ele>424.0</ele><time>2026-03-25T11:59:32.001Z</time></trkpt><trkpt lat="45.51658707761485" lon="11.10848742502164"><ele>425.50000000000006</ele><time>2026-03-25T11:59:34.001Z</time></trkpt><trkpt lat="45.516568269962335" lon="11.108574366798004"><ele>427.0</ele><time>2026-03-25T11:59:35.001Z</time></trkpt><trkpt lat="45.516496193284944" lon="11.108597220463327"><ele>427.0</ele><time>2026-03-25T11:59:37.001Z</time></trkpt></trkseg></trk></gpx>